<?xml version="1.0" encoding="UTF-8" standalone="no" ?>
<gpx xmlns="http://www.topografix.com/GPX/1/1" xmlns:xsi="http://www.w3.org/2001/XMLSchema-instance" xsi:schemaLocation="http://www.topografix.com/GPX/1/1 http://www.topografix.com/GPX/1/1/gpx.xsd" version="1.1" creator="VisuGPX - https://www.visugpx.com">
  <metadata>
    <name>Gerardmer V3 plus court</name>
  </metadata>
  <trk>
    <name><![CDATA[13528261-Gérardmer V3 plus court]]></name>
    <trkseg>
      <trkpt lat="48.02921" lon="6.91093">
        <ele>943</ele>
        <time>2021-08-19T12:13:15Z</time>
      </trkpt>
      <trkpt lat="48.02928" lon="6.91202">
        <ele>931</ele>
        <time>2021-08-19T12:13:32Z</time>
      </trkpt>
      <trkpt lat="48.02925" lon="6.91214">
        <ele>929</ele>
        <time>2021-08-19T12:13:34Z</time>
      </trkpt>
      <trkpt lat="48.02913" lon="6.91202">
        <ele>928</ele>
        <time>2021-08-19T12:13:37Z</time>
      </trkpt>
      <trkpt lat="48.02829" lon="6.91057">
        <ele>913</ele>
        <time>2021-08-19T12:14:07Z</time>
      </trkpt>
      <trkpt lat="48.02842" lon="6.91133">
        <ele>913</ele>
        <time>2021-08-19T12:14:20Z</time>
      </trkpt>
      <trkpt lat="48.02879" lon="6.91255">
        <ele>912</ele>
        <time>2021-08-19T12:14:41Z</time>
      </trkpt>
      <trkpt lat="48.02899" lon="6.91311">
        <ele>909</ele>
        <time>2021-08-19T12:14:51Z</time>
      </trkpt>
      <trkpt lat="48.02933" lon="6.91363">
        <ele>909</ele>
        <time>2021-08-19T12:15:02Z</time>
      </trkpt>
      <trkpt lat="48.03006" lon="6.91438">
        <ele>908</ele>
        <time>2021-08-19T12:15:23Z</time>
      </trkpt>
      <trkpt lat="48.03038" lon="6.91464">
        <ele>909</ele>
        <time>2021-08-19T12:15:31Z</time>
      </trkpt>
      <trkpt lat="48.03088" lon="6.91519">
        <ele>905</ele>
        <time>2021-08-19T12:15:46Z</time>
      </trkpt>
      <trkpt lat="48.0317" lon="6.91569">
        <ele>904</ele>
        <time>2021-08-19T12:16:06Z</time>
      </trkpt>
      <trkpt lat="48.03273" lon="6.91574">
        <ele>907</ele>
        <time>2021-08-19T12:16:30Z</time>
      </trkpt>
      <trkpt lat="48.03377" lon="6.91599">
        <ele>915</ele>
        <time>2021-08-19T12:16:55Z</time>
      </trkpt>
      <trkpt lat="48.03405" lon="6.916">
        <ele>919</ele>
        <time>2021-08-19T12:17:01Z</time>
      </trkpt>
      <trkpt lat="48.03455" lon="6.91614">
        <ele>925</ele>
        <time>2021-08-19T12:17:13Z</time>
      </trkpt>
      <trkpt lat="48.03533" lon="6.91677">
        <ele>933</ele>
        <time>2021-08-19T12:17:34Z</time>
      </trkpt>
      <trkpt lat="48.03546" lon="6.91684">
        <ele>936</ele>
        <time>2021-08-19T12:17:37Z</time>
      </trkpt>
      <trkpt lat="48.03618" lon="6.91831">
        <ele>939</ele>
        <time>2021-08-19T12:18:06Z</time>
      </trkpt>
      <trkpt lat="48.03623" lon="6.91863">
        <ele>937</ele>
        <time>2021-08-19T12:18:11Z</time>
      </trkpt>
      <trkpt lat="48.03716" lon="6.92057">
        <ele>935</ele>
        <time>2021-08-19T12:18:48Z</time>
      </trkpt>
      <trkpt lat="48.03732" lon="6.92067">
        <ele>938</ele>
        <time>2021-08-19T12:18:52Z</time>
      </trkpt>
      <trkpt lat="48.03758" lon="6.92111">
        <ele>937</ele>
        <time>2021-08-19T12:19:01Z</time>
      </trkpt>
      <trkpt lat="48.03789" lon="6.92131">
        <ele>941</ele>
        <time>2021-08-19T12:19:09Z</time>
      </trkpt>
      <trkpt lat="48.0381" lon="6.92162">
        <ele>942</ele>
        <time>2021-08-19T12:19:16Z</time>
      </trkpt>
      <trkpt lat="48.03924" lon="6.92281">
        <ele>958</ele>
        <time>2021-08-19T12:19:49Z</time>
      </trkpt>
      <trkpt lat="48.03927" lon="6.92304">
        <ele>958</ele>
        <time>2021-08-19T12:19:52Z</time>
      </trkpt>
      <trkpt lat="48.03921" lon="6.9235">
        <ele>955</ele>
        <time>2021-08-19T12:20:00Z</time>
      </trkpt>
      <trkpt lat="48.03923" lon="6.92385">
        <ele>956</ele>
        <time>2021-08-19T12:20:05Z</time>
      </trkpt>
      <trkpt lat="48.03942" lon="6.9244">
        <ele>957</ele>
        <time>2021-08-19T12:20:15Z</time>
      </trkpt>
      <trkpt lat="48.03984" lon="6.92493">
        <ele>962</ele>
        <time>2021-08-19T12:20:28Z</time>
      </trkpt>
      <trkpt lat="48.04014" lon="6.92507">
        <ele>968</ele>
        <time>2021-08-19T12:20:35Z</time>
      </trkpt>
      <trkpt lat="48.04072" lon="6.92552">
        <ele>973</ele>
        <time>2021-08-19T12:20:50Z</time>
      </trkpt>
      <trkpt lat="48.04096" lon="6.92557">
        <ele>976</ele>
        <time>2021-08-19T12:20:56Z</time>
      </trkpt>
      <trkpt lat="48.04042" lon="6.92399">
        <ele>986</ele>
        <time>2021-08-19T12:21:24Z</time>
      </trkpt>
      <trkpt lat="48.04034" lon="6.92362">
        <ele>987</ele>
        <time>2021-08-19T12:21:30Z</time>
      </trkpt>
      <trkpt lat="48.04037" lon="6.92297">
        <ele>988</ele>
        <time>2021-08-19T12:21:40Z</time>
      </trkpt>
      <trkpt lat="48.04048" lon="6.92266">
        <ele>989</ele>
        <time>2021-08-19T12:21:45Z</time>
      </trkpt>
      <trkpt lat="48.04068" lon="6.92236">
        <ele>993</ele>
        <time>2021-08-19T12:21:52Z</time>
      </trkpt>
      <trkpt lat="48.04071" lon="6.92214">
        <ele>995</ele>
        <time>2021-08-19T12:21:55Z</time>
      </trkpt>
      <trkpt lat="48.04062" lon="6.9217">
        <ele>995</ele>
        <time>2021-08-19T12:22:03Z</time>
      </trkpt>
      <trkpt lat="48.04047" lon="6.92124">
        <ele>1000</ele>
        <time>2021-08-19T12:22:11Z</time>
      </trkpt>
      <trkpt lat="48.03964" lon="6.92009">
        <ele>1003</ele>
        <time>2021-08-19T12:22:37Z</time>
      </trkpt>
      <trkpt lat="48.03949" lon="6.91978">
        <ele>1006</ele>
        <time>2021-08-19T12:22:43Z</time>
      </trkpt>
      <trkpt lat="48.03934" lon="6.91935">
        <ele>1012</ele>
        <time>2021-08-19T12:22:50Z</time>
      </trkpt>
      <trkpt lat="48.03904" lon="6.9192">
        <ele>1009</ele>
        <time>2021-08-19T12:22:58Z</time>
      </trkpt>
      <trkpt lat="48.03903" lon="6.91897">
        <ele>1012</ele>
        <time>2021-08-19T12:23:01Z</time>
      </trkpt>
      <trkpt lat="48.03924" lon="6.91859">
        <ele>1020</ele>
        <time>2021-08-19T12:23:09Z</time>
      </trkpt>
      <trkpt lat="48.03941" lon="6.91855">
        <ele>1025</ele>
        <time>2021-08-19T12:23:13Z</time>
      </trkpt>
      <trkpt lat="48.03982" lon="6.91893">
        <ele>1028</ele>
        <time>2021-08-19T12:23:24Z</time>
      </trkpt>
      <trkpt lat="48.04014" lon="6.91916">
        <ele>1030</ele>
        <time>2021-08-19T12:23:33Z</time>
      </trkpt>
      <trkpt lat="48.04057" lon="6.91918">
        <ele>1038</ele>
        <time>2021-08-19T12:23:43Z</time>
      </trkpt>
      <trkpt lat="48.04151" lon="6.9198">
        <ele>1046</ele>
        <time>2021-08-19T12:24:07Z</time>
      </trkpt>
      <trkpt lat="48.04197" lon="6.92027">
        <ele>1050</ele>
        <time>2021-08-19T12:24:20Z</time>
      </trkpt>
      <trkpt lat="48.04262" lon="6.9215">
        <ele>1048</ele>
        <time>2021-08-19T12:24:44Z</time>
      </trkpt>
      <trkpt lat="48.04263" lon="6.92181">
        <ele>1045</ele>
        <time>2021-08-19T12:24:49Z</time>
      </trkpt>
      <trkpt lat="48.04259" lon="6.92248">
        <ele>1042</ele>
        <time>2021-08-19T12:25:00Z</time>
      </trkpt>
      <trkpt lat="48.04269" lon="6.92315">
        <ele>1043</ele>
        <time>2021-08-19T12:25:10Z</time>
      </trkpt>
      <trkpt lat="48.04284" lon="6.92356">
        <ele>1042</ele>
        <time>2021-08-19T12:25:18Z</time>
      </trkpt>
      <trkpt lat="48.04304" lon="6.92383">
        <ele>1042</ele>
        <time>2021-08-19T12:25:24Z</time>
      </trkpt>
      <trkpt lat="48.04337" lon="6.92382">
        <ele>1046</ele>
        <time>2021-08-19T12:25:32Z</time>
      </trkpt>
      <trkpt lat="48.04375" lon="6.92356">
        <ele>1043</ele>
        <time>2021-08-19T12:25:41Z</time>
      </trkpt>
      <trkpt lat="48.04423" lon="6.92299">
        <ele>1047</ele>
        <time>2021-08-19T12:25:56Z</time>
      </trkpt>
      <trkpt lat="48.04444" lon="6.92253">
        <ele>1054</ele>
        <time>2021-08-19T12:26:04Z</time>
      </trkpt>
      <trkpt lat="48.0451" lon="6.9223">
        <ele>1047</ele>
        <time>2021-08-19T12:26:20Z</time>
      </trkpt>
      <trkpt lat="48.04519" lon="6.92213">
        <ele>1047</ele>
        <time>2021-08-19T12:26:24Z</time>
      </trkpt>
      <trkpt lat="48.0452" lon="6.9217">
        <ele>1054</ele>
        <time>2021-08-19T12:26:30Z</time>
      </trkpt>
      <trkpt lat="48.04541" lon="6.92137">
        <ele>1055</ele>
        <time>2021-08-19T12:26:37Z</time>
      </trkpt>
      <trkpt lat="48.04628" lon="6.92067">
        <ele>1061</ele>
        <time>2021-08-19T12:27:01Z</time>
      </trkpt>
      <trkpt lat="48.04672" lon="6.92065">
        <ele>1061</ele>
        <time>2021-08-19T12:27:11Z</time>
      </trkpt>
      <trkpt lat="48.04723" lon="6.9209">
        <ele>1059</ele>
        <time>2021-08-19T12:27:23Z</time>
      </trkpt>
      <trkpt lat="48.04775" lon="6.92165">
        <ele>1056</ele>
        <time>2021-08-19T12:27:40Z</time>
      </trkpt>
      <trkpt lat="48.04841" lon="6.92267">
        <ele>1058</ele>
        <time>2021-08-19T12:28:02Z</time>
      </trkpt>
      <trkpt lat="48.04878" lon="6.92345">
        <ele>1055</ele>
        <time>2021-08-19T12:28:17Z</time>
      </trkpt>
      <trkpt lat="48.04923" lon="6.92397">
        <ele>1061</ele>
        <time>2021-08-19T12:28:31Z</time>
      </trkpt>
      <trkpt lat="48.04964" lon="6.9249">
        <ele>1056</ele>
        <time>2021-08-19T12:28:48Z</time>
      </trkpt>
      <trkpt lat="48.04979" lon="6.92503">
        <ele>1057</ele>
        <time>2021-08-19T12:28:52Z</time>
      </trkpt>
      <trkpt lat="48.05038" lon="6.92528">
        <ele>1058</ele>
        <time>2021-08-19T12:29:06Z</time>
      </trkpt>
      <trkpt lat="48.05119" lon="6.92583">
        <ele>1058</ele>
        <time>2021-08-19T12:29:27Z</time>
      </trkpt>
      <trkpt lat="48.05201" lon="6.92652">
        <ele>1054</ele>
        <time>2021-08-19T12:29:49Z</time>
      </trkpt>
      <trkpt lat="48.0524" lon="6.92713">
        <ele>1052</ele>
        <time>2021-08-19T12:30:02Z</time>
      </trkpt>
      <trkpt lat="48.05268" lon="6.92728">
        <ele>1053</ele>
        <time>2021-08-19T12:30:09Z</time>
      </trkpt>
      <trkpt lat="48.0535" lon="6.92751">
        <ele>1060</ele>
        <time>2021-08-19T12:30:29Z</time>
      </trkpt>
      <trkpt lat="48.0543" lon="6.92675">
        <ele>1054</ele>
        <time>2021-08-19T12:30:51Z</time>
      </trkpt>
      <trkpt lat="48.05444" lon="6.92628">
        <ele>1053</ele>
        <time>2021-08-19T12:30:59Z</time>
      </trkpt>
      <trkpt lat="48.05551" lon="6.92541">
        <ele>1056</ele>
        <time>2021-08-19T12:31:27Z</time>
      </trkpt>
      <trkpt lat="48.05631" lon="6.92453">
        <ele>1058</ele>
        <time>2021-08-19T12:31:50Z</time>
      </trkpt>
      <trkpt lat="48.05636" lon="6.92344">
        <ele>1054</ele>
        <time>2021-08-19T12:32:08Z</time>
      </trkpt>
      <trkpt lat="48.05668" lon="6.9226">
        <ele>1048</ele>
        <time>2021-08-19T12:32:23Z</time>
      </trkpt>
      <trkpt lat="48.05682" lon="6.92182">
        <ele>1045</ele>
        <time>2021-08-19T12:32:35Z</time>
      </trkpt>
      <trkpt lat="48.05655" lon="6.91971">
        <ele>1044</ele>
        <time>2021-08-19T12:33:09Z</time>
      </trkpt>
      <trkpt lat="48.05671" lon="6.91913">
        <ele>1046</ele>
        <time>2021-08-19T12:33:19Z</time>
      </trkpt>
      <trkpt lat="48.05676" lon="6.91864">
        <ele>1046</ele>
        <time>2021-08-19T12:33:26Z</time>
      </trkpt>
      <trkpt lat="48.05664" lon="6.91769">
        <ele>1041</ele>
        <time>2021-08-19T12:33:41Z</time>
      </trkpt>
      <trkpt lat="48.05696" lon="6.91679">
        <ele>1040</ele>
        <time>2021-08-19T12:33:57Z</time>
      </trkpt>
      <trkpt lat="48.05642" lon="6.91698">
        <ele>1035</ele>
        <time>2021-08-19T12:34:10Z</time>
      </trkpt>
      <trkpt lat="48.05625" lon="6.91686">
        <ele>1030</ele>
        <time>2021-08-19T12:34:15Z</time>
      </trkpt>
      <trkpt lat="48.0561" lon="6.91689">
        <ele>1027</ele>
        <time>2021-08-19T12:34:18Z</time>
      </trkpt>
      <trkpt lat="48.05589" lon="6.91718">
        <ele>1025</ele>
        <time>2021-08-19T12:34:25Z</time>
      </trkpt>
      <trkpt lat="48.05567" lon="6.91805">
        <ele>1027</ele>
        <time>2021-08-19T12:34:39Z</time>
      </trkpt>
      <trkpt lat="48.05554" lon="6.91844">
        <ele>1026</ele>
        <time>2021-08-19T12:34:46Z</time>
      </trkpt>
      <trkpt lat="48.05502" lon="6.91911">
        <ele>1018</ele>
        <time>2021-08-19T12:35:02Z</time>
      </trkpt>
      <trkpt lat="48.05459" lon="6.9191">
        <ele>1011</ele>
        <time>2021-08-19T12:35:12Z</time>
      </trkpt>
      <trkpt lat="48.05423" lon="6.91877">
        <ele>1003</ele>
        <time>2021-08-19T12:35:22Z</time>
      </trkpt>
      <trkpt lat="48.05404" lon="6.91815">
        <ele>997</ele>
        <time>2021-08-19T12:35:33Z</time>
      </trkpt>
      <trkpt lat="48.05399" lon="6.91731">
        <ele>996</ele>
        <time>2021-08-19T12:35:46Z</time>
      </trkpt>
      <trkpt lat="48.0541" lon="6.91549">
        <ele>985</ele>
        <time>2021-08-19T12:36:14Z</time>
      </trkpt>
      <trkpt lat="48.05392" lon="6.91504">
        <ele>983</ele>
        <time>2021-08-19T12:36:23Z</time>
      </trkpt>
      <trkpt lat="48.05392" lon="6.91423">
        <ele>978</ele>
        <time>2021-08-19T12:36:35Z</time>
      </trkpt>
      <trkpt lat="48.0545" lon="6.9127">
        <ele>960</ele>
        <time>2021-08-19T12:37:03Z</time>
      </trkpt>
      <trkpt lat="48.05561" lon="6.91092">
        <ele>945</ele>
        <time>2021-08-19T12:37:41Z</time>
      </trkpt>
      <trkpt lat="48.05592" lon="6.91063">
        <ele>946</ele>
        <time>2021-08-19T12:37:49Z</time>
      </trkpt>
      <trkpt lat="48.05592" lon="6.91006">
        <ele>949</ele>
        <time>2021-08-19T12:37:58Z</time>
      </trkpt>
      <trkpt lat="48.05633" lon="6.9093">
        <ele>951</ele>
        <time>2021-08-19T12:38:13Z</time>
      </trkpt>
      <trkpt lat="48.05674" lon="6.90884">
        <ele>949</ele>
        <time>2021-08-19T12:38:25Z</time>
      </trkpt>
      <trkpt lat="48.05733" lon="6.90837">
        <ele>944</ele>
        <time>2021-08-19T12:38:41Z</time>
      </trkpt>
      <trkpt lat="48.05772" lon="6.90786">
        <ele>940</ele>
        <time>2021-08-19T12:38:53Z</time>
      </trkpt>
      <trkpt lat="48.05783" lon="6.90729">
        <ele>940</ele>
        <time>2021-08-19T12:39:02Z</time>
      </trkpt>
      <trkpt lat="48.05786" lon="6.90634">
        <ele>938</ele>
        <time>2021-08-19T12:39:17Z</time>
      </trkpt>
      <trkpt lat="48.05775" lon="6.90515">
        <ele>938</ele>
        <time>2021-08-19T12:39:36Z</time>
      </trkpt>
      <trkpt lat="48.05781" lon="6.90392">
        <ele>932</ele>
        <time>2021-08-19T12:39:55Z</time>
      </trkpt>
      <trkpt lat="48.05798" lon="6.90372">
        <ele>928</ele>
        <time>2021-08-19T12:40:00Z</time>
      </trkpt>
      <trkpt lat="48.05808" lon="6.90315">
        <ele>928</ele>
        <time>2021-08-19T12:40:09Z</time>
      </trkpt>
      <trkpt lat="48.05821" lon="6.90212">
        <ele>929</ele>
        <time>2021-08-19T12:40:26Z</time>
      </trkpt>
      <trkpt lat="48.05776" lon="6.90287">
        <ele>935</ele>
        <time>2021-08-19T12:40:42Z</time>
      </trkpt>
      <trkpt lat="48.0575" lon="6.90313">
        <ele>940</ele>
        <time>2021-08-19T12:40:49Z</time>
      </trkpt>
      <trkpt lat="48.05671" lon="6.9036">
        <ele>960</ele>
        <time>2021-08-19T12:41:09Z</time>
      </trkpt>
      <trkpt lat="48.05672" lon="6.90433">
        <ele>960</ele>
        <time>2021-08-19T12:41:20Z</time>
      </trkpt>
      <trkpt lat="48.05644" lon="6.90543">
        <ele>974</ele>
        <time>2021-08-19T12:41:38Z</time>
      </trkpt>
      <trkpt lat="48.05602" lon="6.9052">
        <ele>981</ele>
        <time>2021-08-19T12:41:49Z</time>
      </trkpt>
      <trkpt lat="48.05572" lon="6.90554">
        <ele>989</ele>
        <time>2021-08-19T12:41:58Z</time>
      </trkpt>
      <trkpt lat="48.05567" lon="6.90636">
        <ele>995</ele>
        <time>2021-08-19T12:42:11Z</time>
      </trkpt>
      <trkpt lat="48.05532" lon="6.9069">
        <ele>999</ele>
        <time>2021-08-19T12:42:22Z</time>
      </trkpt>
      <trkpt lat="48.055" lon="6.90711">
        <ele>1003</ele>
        <time>2021-08-19T12:42:30Z</time>
      </trkpt>
      <trkpt lat="48.05463" lon="6.90721">
        <ele>1004</ele>
        <time>2021-08-19T12:42:39Z</time>
      </trkpt>
      <trkpt lat="48.05413" lon="6.90722">
        <ele>1005</ele>
        <time>2021-08-19T12:42:51Z</time>
      </trkpt>
      <trkpt lat="48.05384" lon="6.90706">
        <ele>1007</ele>
        <time>2021-08-19T12:42:58Z</time>
      </trkpt>
      <trkpt lat="48.05346" lon="6.90697">
        <ele>1011</ele>
        <time>2021-08-19T12:43:07Z</time>
      </trkpt>
      <trkpt lat="48.05333" lon="6.90677">
        <ele>1013</ele>
        <time>2021-08-19T12:43:11Z</time>
      </trkpt>
      <trkpt lat="48.05428" lon="6.90468">
        <ele>1020</ele>
        <time>2021-08-19T12:43:51Z</time>
      </trkpt>
      <trkpt lat="48.05493" lon="6.90358">
        <ele>1013</ele>
        <time>2021-08-19T12:44:14Z</time>
      </trkpt>
      <trkpt lat="48.05565" lon="6.90203">
        <ele>999</ele>
        <time>2021-08-19T12:44:43Z</time>
      </trkpt>
      <trkpt lat="48.05583" lon="6.90127">
        <ele>993</ele>
        <time>2021-08-19T12:44:56Z</time>
      </trkpt>
      <trkpt lat="48.05578" lon="6.90029">
        <ele>988</ele>
        <time>2021-08-19T12:45:11Z</time>
      </trkpt>
      <trkpt lat="48.0554" lon="6.89943">
        <ele>993</ele>
        <time>2021-08-19T12:45:27Z</time>
      </trkpt>
      <trkpt lat="48.0553" lon="6.8991">
        <ele>993</ele>
        <time>2021-08-19T12:45:33Z</time>
      </trkpt>
      <trkpt lat="48.05528" lon="6.89826">
        <ele>990</ele>
        <time>2021-08-19T12:45:46Z</time>
      </trkpt>
      <trkpt lat="48.05549" lon="6.89596">
        <ele>989</ele>
        <time>2021-08-19T12:46:22Z</time>
      </trkpt>
      <trkpt lat="48.05603" lon="6.89407">
        <ele>965</ele>
        <time>2021-08-19T12:46:54Z</time>
      </trkpt>
      <trkpt lat="48.05602" lon="6.89268">
        <ele>959</ele>
        <time>2021-08-19T12:47:16Z</time>
      </trkpt>
      <trkpt lat="48.0551" lon="6.89169">
        <ele>982</ele>
        <time>2021-08-19T12:47:43Z</time>
      </trkpt>
      <trkpt lat="48.05484" lon="6.89162">
        <ele>989</ele>
        <time>2021-08-19T12:47:49Z</time>
      </trkpt>
      <trkpt lat="48.05456" lon="6.89102">
        <ele>994</ele>
        <time>2021-08-19T12:48:00Z</time>
      </trkpt>
      <trkpt lat="48.05392" lon="6.88985">
        <ele>1003</ele>
        <time>2021-08-19T12:48:24Z</time>
      </trkpt>
      <trkpt lat="48.05353" lon="6.88974">
        <ele>1008</ele>
        <time>2021-08-19T12:48:33Z</time>
      </trkpt>
      <trkpt lat="48.05318" lon="6.88974">
        <ele>1008</ele>
        <time>2021-08-19T12:48:41Z</time>
      </trkpt>
      <trkpt lat="48.05318" lon="6.89079">
        <ele>1013</ele>
        <time>2021-08-19T12:48:58Z</time>
      </trkpt>
      <trkpt lat="48.05295" lon="6.8922">
        <ele>1019</ele>
        <time>2021-08-19T12:49:20Z</time>
      </trkpt>
      <trkpt lat="48.05277" lon="6.89256">
        <ele>1020</ele>
        <time>2021-08-19T12:49:27Z</time>
      </trkpt>
      <trkpt lat="48.05237" lon="6.89425">
        <ele>1031</ele>
        <time>2021-08-19T12:49:55Z</time>
      </trkpt>
      <trkpt lat="48.05206" lon="6.89513">
        <ele>1035</ele>
        <time>2021-08-19T12:50:11Z</time>
      </trkpt>
      <trkpt lat="48.05172" lon="6.89582">
        <ele>1040</ele>
        <time>2021-08-19T12:50:24Z</time>
      </trkpt>
      <trkpt lat="48.05147" lon="6.89602">
        <ele>1042</ele>
        <time>2021-08-19T12:50:31Z</time>
      </trkpt>
      <trkpt lat="48.05112" lon="6.89616">
        <ele>1044</ele>
        <time>2021-08-19T12:50:39Z</time>
      </trkpt>
      <trkpt lat="48.0507" lon="6.89622">
        <ele>1046</ele>
        <time>2021-08-19T12:50:49Z</time>
      </trkpt>
      <trkpt lat="48.0502" lon="6.89633">
        <ele>1048</ele>
        <time>2021-08-19T12:51:01Z</time>
      </trkpt>
      <trkpt lat="48.04997" lon="6.89655">
        <ele>1049</ele>
        <time>2021-08-19T12:51:07Z</time>
      </trkpt>
      <trkpt lat="48.04981" lon="6.89692">
        <ele>1048</ele>
        <time>2021-08-19T12:51:14Z</time>
      </trkpt>
      <trkpt lat="48.04933" lon="6.89853">
        <ele>1047</ele>
        <time>2021-08-19T12:51:42Z</time>
      </trkpt>
      <trkpt lat="48.04899" lon="6.90022">
        <ele>1053</ele>
        <time>2021-08-19T12:52:09Z</time>
      </trkpt>
      <trkpt lat="48.04859" lon="6.90154">
        <ele>1054</ele>
        <time>2021-08-19T12:52:32Z</time>
      </trkpt>
      <trkpt lat="48.04858" lon="6.90226">
        <ele>1060</ele>
        <time>2021-08-19T12:52:43Z</time>
      </trkpt>
      <trkpt lat="48.0484" lon="6.90316">
        <ele>1065</ele>
        <time>2021-08-19T12:52:58Z</time>
      </trkpt>
      <trkpt lat="48.04831" lon="6.90582">
        <ele>1080</ele>
        <time>2021-08-19T12:53:39Z</time>
      </trkpt>
      <trkpt lat="48.0482" lon="6.90647">
        <ele>1081</ele>
        <time>2021-08-19T12:53:50Z</time>
      </trkpt>
      <trkpt lat="48.04752" lon="6.90836">
        <ele>1085</ele>
        <time>2021-08-19T12:54:23Z</time>
      </trkpt>
      <trkpt lat="48.04723" lon="6.90874">
        <ele>1084</ele>
        <time>2021-08-19T12:54:32Z</time>
      </trkpt>
      <trkpt lat="48.04668" lon="6.9091">
        <ele>1079</ele>
        <time>2021-08-19T12:54:46Z</time>
      </trkpt>
      <trkpt lat="48.04606" lon="6.91006">
        <ele>1078</ele>
        <time>2021-08-19T12:55:07Z</time>
      </trkpt>
      <trkpt lat="48.04574" lon="6.91067">
        <ele>1079</ele>
        <time>2021-08-19T12:55:19Z</time>
      </trkpt>
      <trkpt lat="48.04565" lon="6.91115">
        <ele>1083</ele>
        <time>2021-08-19T12:55:27Z</time>
      </trkpt>
      <trkpt lat="48.04574" lon="6.91141">
        <ele>1087</ele>
        <time>2021-08-19T12:55:32Z</time>
      </trkpt>
      <trkpt lat="48.04484" lon="6.9117">
        <ele>1079</ele>
        <time>2021-08-19T12:55:53Z</time>
      </trkpt>
      <trkpt lat="48.0445" lon="6.91201">
        <ele>1074</ele>
        <time>2021-08-19T12:56:02Z</time>
      </trkpt>
      <trkpt lat="48.04423" lon="6.91241">
        <ele>1073</ele>
        <time>2021-08-19T12:56:11Z</time>
      </trkpt>
      <trkpt lat="48.04392" lon="6.91251">
        <ele>1070</ele>
        <time>2021-08-19T12:56:19Z</time>
      </trkpt>
      <trkpt lat="48.04364" lon="6.91244">
        <ele>1066</ele>
        <time>2021-08-19T12:56:25Z</time>
      </trkpt>
      <trkpt lat="48.0417" lon="6.91284">
        <ele>1056</ele>
        <time>2021-08-19T12:57:11Z</time>
      </trkpt>
      <trkpt lat="48.04152" lon="6.91308">
        <ele>1055</ele>
        <time>2021-08-19T12:57:17Z</time>
      </trkpt>
      <trkpt lat="48.04129" lon="6.91372">
        <ele>1057</ele>
        <time>2021-08-19T12:57:28Z</time>
      </trkpt>
      <trkpt lat="48.04121" lon="6.91431">
        <ele>1060</ele>
        <time>2021-08-19T12:57:37Z</time>
      </trkpt>
      <trkpt lat="48.04098" lon="6.91513">
        <ele>1061</ele>
        <time>2021-08-19T12:57:51Z</time>
      </trkpt>
      <trkpt lat="48.0408" lon="6.91535">
        <ele>1061</ele>
        <time>2021-08-19T12:57:57Z</time>
      </trkpt>
      <trkpt lat="48.0405" lon="6.91553">
        <ele>1062</ele>
        <time>2021-08-19T12:58:04Z</time>
      </trkpt>
      <trkpt lat="48.04016" lon="6.91592">
        <ele>1062</ele>
        <time>2021-08-19T12:58:14Z</time>
      </trkpt>
      <trkpt lat="48.03981" lon="6.91599">
        <ele>1060</ele>
        <time>2021-08-19T12:58:23Z</time>
      </trkpt>
      <trkpt lat="48.03938" lon="6.91582">
        <ele>1059</ele>
        <time>2021-08-19T12:58:33Z</time>
      </trkpt>
      <trkpt lat="48.03921" lon="6.91587">
        <ele>1058</ele>
        <time>2021-08-19T12:58:37Z</time>
      </trkpt>
      <trkpt lat="48.03875" lon="6.91559">
        <ele>1054</ele>
        <time>2021-08-19T12:58:49Z</time>
      </trkpt>
      <trkpt lat="48.03852" lon="6.91532">
        <ele>1054</ele>
        <time>2021-08-19T12:58:55Z</time>
      </trkpt>
      <trkpt lat="48.03834" lon="6.91492">
        <ele>1058</ele>
        <time>2021-08-19T12:59:03Z</time>
      </trkpt>
      <trkpt lat="48.03824" lon="6.91442">
        <ele>1061</ele>
        <time>2021-08-19T12:59:11Z</time>
      </trkpt>
      <trkpt lat="48.03809" lon="6.91403">
        <ele>1060</ele>
        <time>2021-08-19T12:59:18Z</time>
      </trkpt>
      <trkpt lat="48.03768" lon="6.91359">
        <ele>1056</ele>
        <time>2021-08-19T12:59:30Z</time>
      </trkpt>
      <trkpt lat="48.03751" lon="6.9132">
        <ele>1059</ele>
        <time>2021-08-19T12:59:37Z</time>
      </trkpt>
      <trkpt lat="48.03682" lon="6.91227">
        <ele>1060</ele>
        <time>2021-08-19T12:59:59Z</time>
      </trkpt>
      <trkpt lat="48.03611" lon="6.91199">
        <ele>1056</ele>
        <time>2021-08-19T13:00:16Z</time>
      </trkpt>
      <trkpt lat="48.03583" lon="6.91175">
        <ele>1059</ele>
        <time>2021-08-19T13:00:24Z</time>
      </trkpt>
      <trkpt lat="48.03543" lon="6.91147">
        <ele>1053</ele>
        <time>2021-08-19T13:00:34Z</time>
      </trkpt>
      <trkpt lat="48.0353" lon="6.9113">
        <ele>1053</ele>
        <time>2021-08-19T13:00:38Z</time>
      </trkpt>
      <trkpt lat="48.03497" lon="6.91111">
        <ele>1050</ele>
        <time>2021-08-19T13:00:46Z</time>
      </trkpt>
      <trkpt lat="48.0348" lon="6.91089">
        <ele>1051</ele>
        <time>2021-08-19T13:00:51Z</time>
      </trkpt>
      <trkpt lat="48.03461" lon="6.91045">
        <ele>1052</ele>
        <time>2021-08-19T13:01:00Z</time>
      </trkpt>
      <trkpt lat="48.03436" lon="6.91014">
        <ele>1052</ele>
        <time>2021-08-19T13:01:07Z</time>
      </trkpt>
      <trkpt lat="48.03421" lon="6.90981">
        <ele>1053</ele>
        <time>2021-08-19T13:01:13Z</time>
      </trkpt>
      <trkpt lat="48.03416" lon="6.90937">
        <ele>1054</ele>
        <time>2021-08-19T13:01:20Z</time>
      </trkpt>
      <trkpt lat="48.03393" lon="6.90851">
        <ele>1054</ele>
        <time>2021-08-19T13:01:35Z</time>
      </trkpt>
      <trkpt lat="48.03381" lon="6.9076">
        <ele>1055</ele>
        <time>2021-08-19T13:01:49Z</time>
      </trkpt>
      <trkpt lat="48.0344" lon="6.90569">
        <ele>1073</ele>
        <time>2021-08-19T13:02:22Z</time>
      </trkpt>
      <trkpt lat="48.03464" lon="6.90551">
        <ele>1074</ele>
        <time>2021-08-19T13:02:28Z</time>
      </trkpt>
      <trkpt lat="48.03548" lon="6.90545">
        <ele>1070</ele>
        <time>2021-08-19T13:02:48Z</time>
      </trkpt>
      <trkpt lat="48.03614" lon="6.90524">
        <ele>1067</ele>
        <time>2021-08-19T13:03:04Z</time>
      </trkpt>
      <trkpt lat="48.03653" lon="6.90465">
        <ele>1066</ele>
        <time>2021-08-19T13:03:17Z</time>
      </trkpt>
      <trkpt lat="48.03649" lon="6.90447">
        <ele>1067</ele>
        <time>2021-08-19T13:03:20Z</time>
      </trkpt>
      <trkpt lat="48.03638" lon="6.9042">
        <ele>1068</ele>
        <time>2021-08-19T13:03:25Z</time>
      </trkpt>
      <trkpt lat="48.03639" lon="6.90391">
        <ele>1066</ele>
        <time>2021-08-19T13:03:29Z</time>
      </trkpt>
      <trkpt lat="48.03512" lon="6.90505">
        <ele>1075</ele>
        <time>2021-08-19T13:04:04Z</time>
      </trkpt>
      <trkpt lat="48.03487" lon="6.905">
        <ele>1077</ele>
        <time>2021-08-19T13:04:10Z</time>
      </trkpt>
      <trkpt lat="48.03523" lon="6.90335">
        <ele>1079</ele>
        <time>2021-08-19T13:04:37Z</time>
      </trkpt>
      <trkpt lat="48.03522" lon="6.90254">
        <ele>1075</ele>
        <time>2021-08-19T13:04:49Z</time>
      </trkpt>
      <trkpt lat="48.03514" lon="6.90209">
        <ele>1074</ele>
        <time>2021-08-19T13:04:57Z</time>
      </trkpt>
      <trkpt lat="48.03497" lon="6.9019">
        <ele>1075</ele>
        <time>2021-08-19T13:05:02Z</time>
      </trkpt>
      <trkpt lat="48.03484" lon="6.9019">
        <ele>1075</ele>
        <time>2021-08-19T13:05:05Z</time>
      </trkpt>
      <trkpt lat="48.03475" lon="6.90179">
        <ele>1074</ele>
        <time>2021-08-19T13:05:07Z</time>
      </trkpt>
      <trkpt lat="48.03437" lon="6.90109">
        <ele>1067</ele>
        <time>2021-08-19T13:05:22Z</time>
      </trkpt>
      <trkpt lat="48.03437" lon="6.90087">
        <ele>1066</ele>
        <time>2021-08-19T13:05:25Z</time>
      </trkpt>
      <trkpt lat="48.03454" lon="6.90015">
        <ele>1059</ele>
        <time>2021-08-19T13:05:37Z</time>
      </trkpt>
      <trkpt lat="48.03465" lon="6.89948">
        <ele>1055</ele>
        <time>2021-08-19T13:05:48Z</time>
      </trkpt>
      <trkpt lat="48.03483" lon="6.89916">
        <ele>1054</ele>
        <time>2021-08-19T13:05:54Z</time>
      </trkpt>
      <trkpt lat="48.03493" lon="6.89885">
        <ele>1054</ele>
        <time>2021-08-19T13:06:00Z</time>
      </trkpt>
      <trkpt lat="48.03491" lon="6.89871">
        <ele>1054</ele>
        <time>2021-08-19T13:06:02Z</time>
      </trkpt>
      <trkpt lat="48.03482" lon="6.89851">
        <ele>1053</ele>
        <time>2021-08-19T13:06:06Z</time>
      </trkpt>
      <trkpt lat="48.03509" lon="6.89872">
        <ele>1052</ele>
        <time>2021-08-19T13:06:13Z</time>
      </trkpt>
      <trkpt lat="48.03528" lon="6.8994">
        <ele>1050</ele>
        <time>2021-08-19T13:06:24Z</time>
      </trkpt>
      <trkpt lat="48.03544" lon="6.89962">
        <ele>1048</ele>
        <time>2021-08-19T13:06:29Z</time>
      </trkpt>
      <trkpt lat="48.03546" lon="6.89906">
        <ele>1045</ele>
        <time>2021-08-19T13:06:38Z</time>
      </trkpt>
      <trkpt lat="48.03564" lon="6.89841">
        <ele>1041</ele>
        <time>2021-08-19T13:06:49Z</time>
      </trkpt>
      <trkpt lat="48.03594" lon="6.89798">
        <ele>1039</ele>
        <time>2021-08-19T13:06:59Z</time>
      </trkpt>
      <trkpt lat="48.03609" lon="6.89797">
        <ele>1038</ele>
        <time>2021-08-19T13:07:02Z</time>
      </trkpt>
      <trkpt lat="48.03643" lon="6.89779">
        <ele>1037</ele>
        <time>2021-08-19T13:07:11Z</time>
      </trkpt>
      <trkpt lat="48.0366" lon="6.89805">
        <ele>1036</ele>
        <time>2021-08-19T13:07:16Z</time>
      </trkpt>
      <trkpt lat="48.03687" lon="6.8983">
        <ele>1036</ele>
        <time>2021-08-19T13:07:24Z</time>
      </trkpt>
      <trkpt lat="48.03714" lon="6.89878">
        <ele>1035</ele>
        <time>2021-08-19T13:07:34Z</time>
      </trkpt>
      <trkpt lat="48.03757" lon="6.89902">
        <ele>1033</ele>
        <time>2021-08-19T13:07:44Z</time>
      </trkpt>
      <trkpt lat="48.0379" lon="6.89939">
        <ele>1028</ele>
        <time>2021-08-19T13:07:54Z</time>
      </trkpt>
      <trkpt lat="48.03829" lon="6.89997">
        <ele>1023</ele>
        <time>2021-08-19T13:08:07Z</time>
      </trkpt>
      <trkpt lat="48.03849" lon="6.90018">
        <ele>1020</ele>
        <time>2021-08-19T13:08:12Z</time>
      </trkpt>
      <trkpt lat="48.03876" lon="6.90056">
        <ele>1015</ele>
        <time>2021-08-19T13:08:21Z</time>
      </trkpt>
      <trkpt lat="48.03908" lon="6.90062">
        <ele>1010</ele>
        <time>2021-08-19T13:08:29Z</time>
      </trkpt>
      <trkpt lat="48.03917" lon="6.90089">
        <ele>1010</ele>
        <time>2021-08-19T13:08:33Z</time>
      </trkpt>
      <trkpt lat="48.03898" lon="6.90143">
        <ele>1017</ele>
        <time>2021-08-19T13:08:43Z</time>
      </trkpt>
      <trkpt lat="48.03893" lon="6.90177">
        <ele>1020</ele>
        <time>2021-08-19T13:08:48Z</time>
      </trkpt>
      <trkpt lat="48.03896" lon="6.90213">
        <ele>1022</ele>
        <time>2021-08-19T13:08:54Z</time>
      </trkpt>
      <trkpt lat="48.03907" lon="6.90245">
        <ele>1021</ele>
        <time>2021-08-19T13:09:00Z</time>
      </trkpt>
      <trkpt lat="48.03908" lon="6.90316">
        <ele>1019</ele>
        <time>2021-08-19T13:09:11Z</time>
      </trkpt>
      <trkpt lat="48.03914" lon="6.90363">
        <ele>1018</ele>
        <time>2021-08-19T13:09:18Z</time>
      </trkpt>
      <trkpt lat="48.0394" lon="6.90383">
        <ele>1013</ele>
        <time>2021-08-19T13:09:25Z</time>
      </trkpt>
      <trkpt lat="48.03956" lon="6.90383">
        <ele>1011</ele>
        <time>2021-08-19T13:09:29Z</time>
      </trkpt>
      <trkpt lat="48.03987" lon="6.90357">
        <ele>1007</ele>
        <time>2021-08-19T13:09:37Z</time>
      </trkpt>
      <trkpt lat="48.04003" lon="6.90353">
        <ele>1005</ele>
        <time>2021-08-19T13:09:41Z</time>
      </trkpt>
      <trkpt lat="48.04005" lon="6.90368">
        <ele>1003</ele>
        <time>2021-08-19T13:09:43Z</time>
      </trkpt>
      <trkpt lat="48.03985" lon="6.90435">
        <ele>1003</ele>
        <time>2021-08-19T13:09:55Z</time>
      </trkpt>
      <trkpt lat="48.03964" lon="6.90526">
        <ele>999</ele>
        <time>2021-08-19T13:10:10Z</time>
      </trkpt>
      <trkpt lat="48.03923" lon="6.90668">
        <ele>999</ele>
        <time>2021-08-19T13:10:34Z</time>
      </trkpt>
      <trkpt lat="48.03932" lon="6.90717">
        <ele>1000</ele>
        <time>2021-08-19T13:10:42Z</time>
      </trkpt>
      <trkpt lat="48.0396" lon="6.90779">
        <ele>997</ele>
        <time>2021-08-19T13:10:53Z</time>
      </trkpt>
      <trkpt lat="48.03966" lon="6.90828">
        <ele>1000</ele>
        <time>2021-08-19T13:11:01Z</time>
      </trkpt>
      <trkpt lat="48.03978" lon="6.90843">
        <ele>1000</ele>
        <time>2021-08-19T13:11:05Z</time>
      </trkpt>
      <trkpt lat="48.0399" lon="6.90849">
        <ele>998</ele>
        <time>2021-08-19T13:11:08Z</time>
      </trkpt>
      <trkpt lat="48.04024" lon="6.9084">
        <ele>993</ele>
        <time>2021-08-19T13:11:16Z</time>
      </trkpt>
      <trkpt lat="48.04068" lon="6.90861">
        <ele>992</ele>
        <time>2021-08-19T13:11:27Z</time>
      </trkpt>
      <trkpt lat="48.0411" lon="6.90858">
        <ele>993</ele>
        <time>2021-08-19T13:11:36Z</time>
      </trkpt>
      <trkpt lat="48.04142" lon="6.90827">
        <ele>989</ele>
        <time>2021-08-19T13:11:45Z</time>
      </trkpt>
      <trkpt lat="48.04178" lon="6.9082">
        <ele>991</ele>
        <time>2021-08-19T13:11:54Z</time>
      </trkpt>
      <trkpt lat="48.04219" lon="6.908">
        <ele>995</ele>
        <time>2021-08-19T13:12:04Z</time>
      </trkpt>
      <trkpt lat="48.04267" lon="6.90766">
        <ele>996</ele>
        <time>2021-08-19T13:12:16Z</time>
      </trkpt>
      <trkpt lat="48.04289" lon="6.90722">
        <ele>995</ele>
        <time>2021-08-19T13:12:25Z</time>
      </trkpt>
      <trkpt lat="48.04299" lon="6.90658">
        <ele>991</ele>
        <time>2021-08-19T13:12:35Z</time>
      </trkpt>
      <trkpt lat="48.043" lon="6.9061">
        <ele>990</ele>
        <time>2021-08-19T13:12:43Z</time>
      </trkpt>
      <trkpt lat="48.04274" lon="6.90428">
        <ele>982</ele>
        <time>2021-08-19T13:13:12Z</time>
      </trkpt>
      <trkpt lat="48.04313" lon="6.90344">
        <ele>982</ele>
        <time>2021-08-19T13:13:28Z</time>
      </trkpt>
      <trkpt lat="48.04334" lon="6.90282">
        <ele>980</ele>
        <time>2021-08-19T13:13:39Z</time>
      </trkpt>
      <trkpt lat="48.04387" lon="6.90175">
        <ele>978</ele>
        <time>2021-08-19T13:13:59Z</time>
      </trkpt>
      <trkpt lat="48.04469" lon="6.90088">
        <ele>981</ele>
        <time>2021-08-19T13:14:23Z</time>
      </trkpt>
      <trkpt lat="48.04525" lon="6.89991">
        <ele>978</ele>
        <time>2021-08-19T13:14:43Z</time>
      </trkpt>
      <trkpt lat="48.04574" lon="6.89955">
        <ele>980</ele>
        <time>2021-08-19T13:14:56Z</time>
      </trkpt>
      <trkpt lat="48.04603" lon="6.8992">
        <ele>979</ele>
        <time>2021-08-19T13:15:04Z</time>
      </trkpt>
      <trkpt lat="48.0468" lon="6.8985">
        <ele>985</ele>
        <time>2021-08-19T13:15:25Z</time>
      </trkpt>
      <trkpt lat="48.04698" lon="6.89839">
        <ele>987</ele>
        <time>2021-08-19T13:15:30Z</time>
      </trkpt>
      <trkpt lat="48.04773" lon="6.89824">
        <ele>1002</ele>
        <time>2021-08-19T13:15:48Z</time>
      </trkpt>
      <trkpt lat="48.04783" lon="6.89802">
        <ele>1004</ele>
        <time>2021-08-19T13:15:52Z</time>
      </trkpt>
      <trkpt lat="48.04786" lon="6.8969">
        <ele>1002</ele>
        <time>2021-08-19T13:16:09Z</time>
      </trkpt>
      <trkpt lat="48.04796" lon="6.89593">
        <ele>999</ele>
        <time>2021-08-19T13:16:25Z</time>
      </trkpt>
      <trkpt lat="48.04813" lon="6.89513">
        <ele>999</ele>
        <time>2021-08-19T13:16:38Z</time>
      </trkpt>
      <trkpt lat="48.04843" lon="6.89477">
        <ele>1005</ele>
        <time>2021-08-19T13:16:47Z</time>
      </trkpt>
      <trkpt lat="48.04866" lon="6.89364">
        <ele>996</ele>
        <time>2021-08-19T13:17:05Z</time>
      </trkpt>
      <trkpt lat="48.04911" lon="6.89277">
        <ele>988</ele>
        <time>2021-08-19T13:17:22Z</time>
      </trkpt>
      <trkpt lat="48.04972" lon="6.89253">
        <ele>983</ele>
        <time>2021-08-19T13:17:37Z</time>
      </trkpt>
      <trkpt lat="48.05078" lon="6.89274">
        <ele>987</ele>
        <time>2021-08-19T13:18:02Z</time>
      </trkpt>
      <trkpt lat="48.05222" lon="6.89112">
        <ele>997</ele>
        <time>2021-08-19T13:18:44Z</time>
      </trkpt>
      <trkpt lat="48.05271" lon="6.89008">
        <ele>1002</ele>
        <time>2021-08-19T13:19:04Z</time>
      </trkpt>
      <trkpt lat="48.05298" lon="6.88973">
        <ele>1004</ele>
        <time>2021-08-19T13:19:12Z</time>
      </trkpt>
      <trkpt lat="48.05296" lon="6.88814">
        <ele>998</ele>
        <time>2021-08-19T13:19:37Z</time>
      </trkpt>
      <trkpt lat="48.05267" lon="6.88702">
        <ele>994</ele>
        <time>2021-08-19T13:19:56Z</time>
      </trkpt>
      <trkpt lat="48.05235" lon="6.88612">
        <ele>992</ele>
        <time>2021-08-19T13:20:12Z</time>
      </trkpt>
      <trkpt lat="48.0519" lon="6.88506">
        <ele>984</ele>
        <time>2021-08-19T13:20:31Z</time>
      </trkpt>
      <trkpt lat="48.05177" lon="6.88438">
        <ele>977</ele>
        <time>2021-08-19T13:20:42Z</time>
      </trkpt>
      <trkpt lat="48.05169" lon="6.88355">
        <ele>968</ele>
        <time>2021-08-19T13:20:55Z</time>
      </trkpt>
      <trkpt lat="48.05184" lon="6.88291">
        <ele>962</ele>
        <time>2021-08-19T13:21:06Z</time>
      </trkpt>
      <trkpt lat="48.0518" lon="6.88256">
        <ele>957</ele>
        <time>2021-08-19T13:21:12Z</time>
      </trkpt>
      <trkpt lat="48.05151" lon="6.88275">
        <ele>955</ele>
        <time>2021-08-19T13:21:19Z</time>
      </trkpt>
      <trkpt lat="48.05115" lon="6.88305">
        <ele>951</ele>
        <time>2021-08-19T13:21:29Z</time>
      </trkpt>
      <trkpt lat="48.05118" lon="6.8826">
        <ele>947</ele>
        <time>2021-08-19T13:21:36Z</time>
      </trkpt>
      <trkpt lat="48.05142" lon="6.88187">
        <ele>938</ele>
        <time>2021-08-19T13:21:48Z</time>
      </trkpt>
      <trkpt lat="48.05071" lon="6.88187">
        <ele>924</ele>
        <time>2021-08-19T13:22:05Z</time>
      </trkpt>
      <trkpt lat="48.05077" lon="6.8816">
        <ele>921</ele>
        <time>2021-08-19T13:22:09Z</time>
      </trkpt>
      <trkpt lat="48.05146" lon="6.88072">
        <ele>908</ele>
        <time>2021-08-19T13:22:31Z</time>
      </trkpt>
      <trkpt lat="48.05238" lon="6.88004">
        <ele>885</ele>
        <time>2021-08-19T13:22:54Z</time>
      </trkpt>
      <trkpt lat="48.0533" lon="6.8796">
        <ele>871</ele>
        <time>2021-08-19T13:23:17Z</time>
      </trkpt>
      <trkpt lat="48.05381" lon="6.87943">
        <ele>862</ele>
        <time>2021-08-19T13:23:29Z</time>
      </trkpt>
      <trkpt lat="48.05426" lon="6.87936">
        <ele>855</ele>
        <time>2021-08-19T13:23:40Z</time>
      </trkpt>
      <trkpt lat="48.0544" lon="6.87925">
        <ele>851</ele>
        <time>2021-08-19T13:23:44Z</time>
      </trkpt>
      <trkpt lat="48.05447" lon="6.87832">
        <ele>829</ele>
        <time>2021-08-19T13:23:58Z</time>
      </trkpt>
      <trkpt lat="48.05468" lon="6.87809">
        <ele>821</ele>
        <time>2021-08-19T13:24:04Z</time>
      </trkpt>
      <trkpt lat="48.05528" lon="6.87788">
        <ele>813</ele>
        <time>2021-08-19T13:24:19Z</time>
      </trkpt>
      <trkpt lat="48.05494" lon="6.8776">
        <ele>809</ele>
        <time>2021-08-19T13:24:28Z</time>
      </trkpt>
      <trkpt lat="48.05451" lon="6.87752">
        <ele>806</ele>
        <time>2021-08-19T13:24:38Z</time>
      </trkpt>
      <trkpt lat="48.05443" lon="6.87738">
        <ele>803</ele>
        <time>2021-08-19T13:24:41Z</time>
      </trkpt>
      <trkpt lat="48.05444" lon="6.87723">
        <ele>801</ele>
        <time>2021-08-19T13:24:43Z</time>
      </trkpt>
      <trkpt lat="48.05481" lon="6.87686">
        <ele>798</ele>
        <time>2021-08-19T13:24:53Z</time>
      </trkpt>
      <trkpt lat="48.05486" lon="6.87647">
        <ele>795</ele>
        <time>2021-08-19T13:25:00Z</time>
      </trkpt>
      <trkpt lat="48.05481" lon="6.87561">
        <ele>797</ele>
        <time>2021-08-19T13:25:13Z</time>
      </trkpt>
      <trkpt lat="48.0542" lon="6.87486">
        <ele>798</ele>
        <time>2021-08-19T13:25:32Z</time>
      </trkpt>
      <trkpt lat="48.05334" lon="6.87412">
        <ele>796</ele>
        <time>2021-08-19T13:25:55Z</time>
      </trkpt>
      <trkpt lat="48.05263" lon="6.87362">
        <ele>798</ele>
        <time>2021-08-19T13:26:13Z</time>
      </trkpt>
      <trkpt lat="48.05165" lon="6.8732">
        <ele>797</ele>
        <time>2021-08-19T13:26:37Z</time>
      </trkpt>
      <trkpt lat="48.05141" lon="6.87284">
        <ele>799</ele>
        <time>2021-08-19T13:26:45Z</time>
      </trkpt>
      <trkpt lat="48.05141" lon="6.87252">
        <ele>801</ele>
        <time>2021-08-19T13:26:50Z</time>
      </trkpt>
      <trkpt lat="48.05109" lon="6.87074">
        <ele>807</ele>
        <time>2021-08-19T13:27:19Z</time>
      </trkpt>
      <trkpt lat="48.05159" lon="6.8688">
        <ele>818</ele>
        <time>2021-08-19T13:27:51Z</time>
      </trkpt>
      <trkpt lat="48.05206" lon="6.86624">
        <ele>827</ele>
        <time>2021-08-19T13:28:32Z</time>
      </trkpt>
      <trkpt lat="48.0525" lon="6.8646">
        <ele>819</ele>
        <time>2021-08-19T13:29:00Z</time>
      </trkpt>
      <trkpt lat="48.05293" lon="6.86427">
        <ele>817</ele>
        <time>2021-08-19T13:29:11Z</time>
      </trkpt>
      <trkpt lat="48.05306" lon="6.86411">
        <ele>815</ele>
        <time>2021-08-19T13:29:15Z</time>
      </trkpt>
      <trkpt lat="48.0535" lon="6.86402">
        <ele>815</ele>
        <time>2021-08-19T13:29:26Z</time>
      </trkpt>
      <trkpt lat="48.05395" lon="6.86456">
        <ele>818</ele>
        <time>2021-08-19T13:29:39Z</time>
      </trkpt>
      <trkpt lat="48.0542" lon="6.86478">
        <ele>818</ele>
        <time>2021-08-19T13:29:46Z</time>
      </trkpt>
      <trkpt lat="48.0543" lon="6.86508">
        <ele>821</ele>
        <time>2021-08-19T13:29:51Z</time>
      </trkpt>
      <trkpt lat="48.0545" lon="6.86591">
        <ele>831</ele>
        <time>2021-08-19T13:30:05Z</time>
      </trkpt>
      <trkpt lat="48.05469" lon="6.86628">
        <ele>836</ele>
        <time>2021-08-19T13:30:12Z</time>
      </trkpt>
      <trkpt lat="48.05526" lon="6.86641">
        <ele>831</ele>
        <time>2021-08-19T13:30:26Z</time>
      </trkpt>
      <trkpt lat="48.05539" lon="6.86653">
        <ele>833</ele>
        <time>2021-08-19T13:30:29Z</time>
      </trkpt>
      <trkpt lat="48.05544" lon="6.86671">
        <ele>835</ele>
        <time>2021-08-19T13:30:32Z</time>
      </trkpt>
      <trkpt lat="48.05542" lon="6.86768">
        <ele>843</ele>
        <time>2021-08-19T13:30:47Z</time>
      </trkpt>
      <trkpt lat="48.05539" lon="6.86798">
        <ele>846</ele>
        <time>2021-08-19T13:30:52Z</time>
      </trkpt>
      <trkpt lat="48.05544" lon="6.86813">
        <ele>847</ele>
        <time>2021-08-19T13:30:55Z</time>
      </trkpt>
      <trkpt lat="48.05613" lon="6.86836">
        <ele>840</ele>
        <time>2021-08-19T13:31:11Z</time>
      </trkpt>
      <trkpt lat="48.05633" lon="6.86865">
        <ele>842</ele>
        <time>2021-08-19T13:31:18Z</time>
      </trkpt>
      <trkpt lat="48.05642" lon="6.86908">
        <ele>845</ele>
        <time>2021-08-19T13:31:25Z</time>
      </trkpt>
      <trkpt lat="48.05639" lon="6.86952">
        <ele>848</ele>
        <time>2021-08-19T13:31:32Z</time>
      </trkpt>
      <trkpt lat="48.05681" lon="6.86948">
        <ele>842</ele>
        <time>2021-08-19T13:31:41Z</time>
      </trkpt>
      <trkpt lat="48.05721" lon="6.86927">
        <ele>835</ele>
        <time>2021-08-19T13:31:51Z</time>
      </trkpt>
      <trkpt lat="48.05787" lon="6.86902">
        <ele>826</ele>
        <time>2021-08-19T13:32:07Z</time>
      </trkpt>
      <trkpt lat="48.05842" lon="6.869">
        <ele>819</ele>
        <time>2021-08-19T13:32:20Z</time>
      </trkpt>
      <trkpt lat="48.05874" lon="6.86838">
        <ele>820</ele>
        <time>2021-08-19T13:32:32Z</time>
      </trkpt>
      <trkpt lat="48.05901" lon="6.8682">
        <ele>818</ele>
        <time>2021-08-19T13:32:39Z</time>
      </trkpt>
      <trkpt lat="48.05914" lon="6.86801">
        <ele>817</ele>
        <time>2021-08-19T13:32:43Z</time>
      </trkpt>
      <trkpt lat="48.05925" lon="6.86767">
        <ele>818</ele>
        <time>2021-08-19T13:32:49Z</time>
      </trkpt>
      <trkpt lat="48.05945" lon="6.86747">
        <ele>817</ele>
        <time>2021-08-19T13:32:55Z</time>
      </trkpt>
      <trkpt lat="48.06019" lon="6.86722">
        <ele>809</ele>
        <time>2021-08-19T13:33:13Z</time>
      </trkpt>
      <trkpt lat="48.06084" lon="6.86685">
        <ele>799</ele>
        <time>2021-08-19T13:33:29Z</time>
      </trkpt>
      <trkpt lat="48.06133" lon="6.86631">
        <ele>793</ele>
        <time>2021-08-19T13:33:43Z</time>
      </trkpt>
      <trkpt lat="48.06066" lon="6.86592">
        <ele>801</ele>
        <time>2021-08-19T13:34:00Z</time>
      </trkpt>
      <trkpt lat="48.06034" lon="6.86577">
        <ele>806</ele>
        <time>2021-08-19T13:34:08Z</time>
      </trkpt>
      <trkpt lat="48.06015" lon="6.86564">
        <ele>809</ele>
        <time>2021-08-19T13:34:13Z</time>
      </trkpt>
      <trkpt lat="48.05995" lon="6.86548">
        <ele>812</ele>
        <time>2021-08-19T13:34:18Z</time>
      </trkpt>
      <trkpt lat="48.05956" lon="6.865">
        <ele>815</ele>
        <time>2021-08-19T13:34:30Z</time>
      </trkpt>
      <trkpt lat="48.05939" lon="6.86486">
        <ele>816</ele>
        <time>2021-08-19T13:34:34Z</time>
      </trkpt>
      <trkpt lat="48.05908" lon="6.86473">
        <ele>819</ele>
        <time>2021-08-19T13:34:42Z</time>
      </trkpt>
      <trkpt lat="48.05853" lon="6.86474">
        <ele>824</ele>
        <time>2021-08-19T13:34:55Z</time>
      </trkpt>
      <trkpt lat="48.05857" lon="6.86448">
        <ele>824</ele>
        <time>2021-08-19T13:34:59Z</time>
      </trkpt>
      <trkpt lat="48.05897" lon="6.864">
        <ele>824</ele>
        <time>2021-08-19T13:35:11Z</time>
      </trkpt>
      <trkpt lat="48.05919" lon="6.86378">
        <ele>823</ele>
        <time>2021-08-19T13:35:17Z</time>
      </trkpt>
      <trkpt lat="48.05952" lon="6.86328">
        <ele>821</ele>
        <time>2021-08-19T13:35:28Z</time>
      </trkpt>
      <trkpt lat="48.05985" lon="6.86298">
        <ele>820</ele>
        <time>2021-08-19T13:35:37Z</time>
      </trkpt>
      <trkpt lat="48.06034" lon="6.86234">
        <ele>817</ele>
        <time>2021-08-19T13:35:52Z</time>
      </trkpt>
      <trkpt lat="48.06076" lon="6.8622">
        <ele>810</ele>
        <time>2021-08-19T13:36:02Z</time>
      </trkpt>
      <trkpt lat="48.06148" lon="6.86211">
        <ele>809</ele>
        <time>2021-08-19T13:36:19Z</time>
      </trkpt>
      <trkpt lat="48.06143" lon="6.86183">
        <ele>810</ele>
        <time>2021-08-19T13:36:24Z</time>
      </trkpt>
      <trkpt lat="48.06102" lon="6.86125">
        <ele>806</ele>
        <time>2021-08-19T13:36:37Z</time>
      </trkpt>
      <trkpt lat="48.06054" lon="6.86114">
        <ele>811</ele>
        <time>2021-08-19T13:36:48Z</time>
      </trkpt>
      <trkpt lat="48.06048" lon="6.86077">
        <ele>809</ele>
        <time>2021-08-19T13:36:54Z</time>
      </trkpt>
      <trkpt lat="48.06049" lon="6.86007">
        <ele>800</ele>
        <time>2021-08-19T13:37:05Z</time>
      </trkpt>
      <trkpt lat="48.06061" lon="6.85906">
        <ele>783</ele>
        <time>2021-08-19T13:37:21Z</time>
      </trkpt>
      <trkpt lat="48.06056" lon="6.8587">
        <ele>778</ele>
        <time>2021-08-19T13:37:27Z</time>
      </trkpt>
      <trkpt lat="48.06022" lon="6.8582">
        <ele>773</ele>
        <time>2021-08-19T13:37:38Z</time>
      </trkpt>
      <trkpt lat="48.06006" lon="6.85805">
        <ele>771</ele>
        <time>2021-08-19T13:37:42Z</time>
      </trkpt>
      <trkpt lat="48.05942" lon="6.85814">
        <ele>774</ele>
        <time>2021-08-19T13:37:57Z</time>
      </trkpt>
      <trkpt lat="48.05917" lon="6.85799">
        <ele>771</ele>
        <time>2021-08-19T13:38:04Z</time>
      </trkpt>
      <trkpt lat="48.05907" lon="6.85763">
        <ele>763</ele>
        <time>2021-08-19T13:38:10Z</time>
      </trkpt>
      <trkpt lat="48.0589" lon="6.85738">
        <ele>758</ele>
        <time>2021-08-19T13:38:15Z</time>
      </trkpt>
      <trkpt lat="48.05887" lon="6.85725">
        <ele>755</ele>
        <time>2021-08-19T13:38:17Z</time>
      </trkpt>
      <trkpt lat="48.05876" lon="6.8572">
        <ele>754</ele>
        <time>2021-08-19T13:38:20Z</time>
      </trkpt>
      <trkpt lat="48.05821" lon="6.8573">
        <ele>757</ele>
        <time>2021-08-19T13:38:33Z</time>
      </trkpt>
      <trkpt lat="48.05758" lon="6.85746">
        <ele>756</ele>
        <time>2021-08-19T13:38:48Z</time>
      </trkpt>
      <trkpt lat="48.05718" lon="6.85776">
        <ele>755</ele>
        <time>2021-08-19T13:38:58Z</time>
      </trkpt>
      <trkpt lat="48.05668" lon="6.8584">
        <ele>756</ele>
        <time>2021-08-19T13:39:14Z</time>
      </trkpt>
      <trkpt lat="48.05606" lon="6.85876">
        <ele>746</ele>
        <time>2021-08-19T13:39:29Z</time>
      </trkpt>
      <trkpt lat="48.05578" lon="6.85905">
        <ele>745</ele>
        <time>2021-08-19T13:39:37Z</time>
      </trkpt>
      <trkpt lat="48.05525" lon="6.85941">
        <ele>741</ele>
        <time>2021-08-19T13:39:51Z</time>
      </trkpt>
      <trkpt lat="48.05549" lon="6.85882">
        <ele>735</ele>
        <time>2021-08-19T13:40:02Z</time>
      </trkpt>
      <trkpt lat="48.05598" lon="6.85822">
        <ele>733</ele>
        <time>2021-08-19T13:40:16Z</time>
      </trkpt>
      <trkpt lat="48.05605" lon="6.85756">
        <ele>725</ele>
        <time>2021-08-19T13:40:27Z</time>
      </trkpt>
      <trkpt lat="48.05669" lon="6.85664">
        <ele>716</ele>
        <time>2021-08-19T13:40:48Z</time>
      </trkpt>
      <trkpt lat="48.05717" lon="6.85559">
        <ele>701</ele>
        <time>2021-08-19T13:41:07Z</time>
      </trkpt>
      <trkpt lat="48.05729" lon="6.85494">
        <ele>691</ele>
        <time>2021-08-19T13:41:18Z</time>
      </trkpt>
      <trkpt lat="48.05738" lon="6.85477">
        <ele>689</ele>
        <time>2021-08-19T13:41:21Z</time>
      </trkpt>
      <trkpt lat="48.05749" lon="6.85471">
        <ele>688</ele>
        <time>2021-08-19T13:41:24Z</time>
      </trkpt>
      <trkpt lat="48.05744" lon="6.85454">
        <ele>686</ele>
        <time>2021-08-19T13:41:27Z</time>
      </trkpt>
      <trkpt lat="48.05757" lon="6.85396">
        <ele>679</ele>
        <time>2021-08-19T13:41:36Z</time>
      </trkpt>
      <trkpt lat="48.05803" lon="6.85331">
        <ele>677</ele>
        <time>2021-08-19T13:41:51Z</time>
      </trkpt>
      <trkpt lat="48.05831" lon="6.85312">
        <ele>676</ele>
        <time>2021-08-19T13:41:58Z</time>
      </trkpt>
      <trkpt lat="48.05873" lon="6.85307">
        <ele>676</ele>
        <time>2021-08-19T13:42:08Z</time>
      </trkpt>
      <trkpt lat="48.05855" lon="6.85283">
        <ele>674</ele>
        <time>2021-08-19T13:42:14Z</time>
      </trkpt>
      <trkpt lat="48.05826" lon="6.85255">
        <ele>671</ele>
        <time>2021-08-19T13:42:22Z</time>
      </trkpt>
      <trkpt lat="48.05784" lon="6.85197">
        <ele>672</ele>
        <time>2021-08-19T13:42:35Z</time>
      </trkpt>
      <trkpt lat="48.05732" lon="6.85143">
        <ele>672</ele>
        <time>2021-08-19T13:42:50Z</time>
      </trkpt>
      <trkpt lat="48.05644" lon="6.85042">
        <ele>678</ele>
        <time>2021-08-19T13:43:16Z</time>
      </trkpt>
      <trkpt lat="48.05596" lon="6.85032">
        <ele>684</ele>
        <time>2021-08-19T13:43:27Z</time>
      </trkpt>
      <trkpt lat="48.05552" lon="6.85029">
        <ele>687</ele>
        <time>2021-08-19T13:43:38Z</time>
      </trkpt>
      <trkpt lat="48.05512" lon="6.85037">
        <ele>690</ele>
        <time>2021-08-19T13:43:47Z</time>
      </trkpt>
      <trkpt lat="48.05466" lon="6.85042">
        <ele>693</ele>
        <time>2021-08-19T13:43:58Z</time>
      </trkpt>
      <trkpt lat="48.05442" lon="6.85079">
        <ele>696</ele>
        <time>2021-08-19T13:44:06Z</time>
      </trkpt>
      <trkpt lat="48.05429" lon="6.8509">
        <ele>699</ele>
        <time>2021-08-19T13:44:09Z</time>
      </trkpt>
      <trkpt lat="48.05377" lon="6.85088">
        <ele>702</ele>
        <time>2021-08-19T13:44:21Z</time>
      </trkpt>
      <trkpt lat="48.05305" lon="6.85054">
        <ele>700</ele>
        <time>2021-08-19T13:44:39Z</time>
      </trkpt>
      <trkpt lat="48.05223" lon="6.85044">
        <ele>702</ele>
        <time>2021-08-19T13:44:58Z</time>
      </trkpt>
      <trkpt lat="48.05187" lon="6.85035">
        <ele>706</ele>
        <time>2021-08-19T13:45:07Z</time>
      </trkpt>
      <trkpt lat="48.05107" lon="6.85">
        <ele>710</ele>
        <time>2021-08-19T13:45:26Z</time>
      </trkpt>
      <trkpt lat="48.05093" lon="6.84975">
        <ele>714</ele>
        <time>2021-08-19T13:45:31Z</time>
      </trkpt>
      <trkpt lat="48.05082" lon="6.84922">
        <ele>721</ele>
        <time>2021-08-19T13:45:40Z</time>
      </trkpt>
      <trkpt lat="48.05061" lon="6.84912">
        <ele>724</ele>
        <time>2021-08-19T13:45:45Z</time>
      </trkpt>
      <trkpt lat="48.04982" lon="6.84852">
        <ele>738</ele>
        <time>2021-08-19T13:46:06Z</time>
      </trkpt>
      <trkpt lat="48.04933" lon="6.8478">
        <ele>744</ele>
        <time>2021-08-19T13:46:22Z</time>
      </trkpt>
      <trkpt lat="48.04854" lon="6.84709">
        <ele>752</ele>
        <time>2021-08-19T13:46:43Z</time>
      </trkpt>
      <trkpt lat="48.04823" lon="6.84667">
        <ele>751</ele>
        <time>2021-08-19T13:46:53Z</time>
      </trkpt>
      <trkpt lat="48.048" lon="6.84576">
        <ele>754</ele>
        <time>2021-08-19T13:47:08Z</time>
      </trkpt>
      <trkpt lat="48.04766" lon="6.8452">
        <ele>759</ele>
        <time>2021-08-19T13:47:20Z</time>
      </trkpt>
      <trkpt lat="48.04722" lon="6.84461">
        <ele>760</ele>
        <time>2021-08-19T13:47:34Z</time>
      </trkpt>
      <trkpt lat="48.04717" lon="6.8444">
        <ele>759</ele>
        <time>2021-08-19T13:47:38Z</time>
      </trkpt>
      <trkpt lat="48.04715" lon="6.8441">
        <ele>758</ele>
        <time>2021-08-19T13:47:42Z</time>
      </trkpt>
      <trkpt lat="48.04724" lon="6.84382">
        <ele>761</ele>
        <time>2021-08-19T13:47:47Z</time>
      </trkpt>
      <trkpt lat="48.04713" lon="6.84363">
        <ele>764</ele>
        <time>2021-08-19T13:47:51Z</time>
      </trkpt>
      <trkpt lat="48.04711" lon="6.84343">
        <ele>766</ele>
        <time>2021-08-19T13:47:54Z</time>
      </trkpt>
      <trkpt lat="48.04683" lon="6.84315">
        <ele>771</ele>
        <time>2021-08-19T13:48:02Z</time>
      </trkpt>
      <trkpt lat="48.04644" lon="6.84294">
        <ele>775</ele>
        <time>2021-08-19T13:48:12Z</time>
      </trkpt>
      <trkpt lat="48.04626" lon="6.84266">
        <ele>779</ele>
        <time>2021-08-19T13:48:18Z</time>
      </trkpt>
      <trkpt lat="48.04625" lon="6.84248">
        <ele>781</ele>
        <time>2021-08-19T13:48:21Z</time>
      </trkpt>
      <trkpt lat="48.04655" lon="6.84245">
        <ele>782</ele>
        <time>2021-08-19T13:48:28Z</time>
      </trkpt>
      <trkpt lat="48.04666" lon="6.84229">
        <ele>783</ele>
        <time>2021-08-19T13:48:31Z</time>
      </trkpt>
      <trkpt lat="48.04666" lon="6.84196">
        <ele>785</ele>
        <time>2021-08-19T13:48:36Z</time>
      </trkpt>
      <trkpt lat="48.04673" lon="6.84178">
        <ele>785</ele>
        <time>2021-08-19T13:48:40Z</time>
      </trkpt>
      <trkpt lat="48.04686" lon="6.84178">
        <ele>785</ele>
        <time>2021-08-19T13:48:43Z</time>
      </trkpt>
      <trkpt lat="48.04696" lon="6.84163">
        <ele>785</ele>
        <time>2021-08-19T13:48:46Z</time>
      </trkpt>
      <trkpt lat="48.047" lon="6.84148">
        <ele>787</ele>
        <time>2021-08-19T13:48:48Z</time>
      </trkpt>
      <trkpt lat="48.047" lon="6.8412">
        <ele>790</ele>
        <time>2021-08-19T13:48:53Z</time>
      </trkpt>
      <trkpt lat="48.04695" lon="6.84076">
        <ele>795</ele>
        <time>2021-08-19T13:49:00Z</time>
      </trkpt>
      <trkpt lat="48.04623" lon="6.83891">
        <ele>821</ele>
        <time>2021-08-19T13:49:33Z</time>
      </trkpt>
      <trkpt lat="48.04668" lon="6.83932">
        <ele>817</ele>
        <time>2021-08-19T13:49:46Z</time>
      </trkpt>
      <trkpt lat="48.0471" lon="6.83961">
        <ele>816</ele>
        <time>2021-08-19T13:49:56Z</time>
      </trkpt>
      <trkpt lat="48.04758" lon="6.84002">
        <ele>811</ele>
        <time>2021-08-19T13:50:09Z</time>
      </trkpt>
      <trkpt lat="48.04867" lon="6.84007">
        <ele>813</ele>
        <time>2021-08-19T13:50:35Z</time>
      </trkpt>
      <trkpt lat="48.04923" lon="6.84045">
        <ele>816</ele>
        <time>2021-08-19T13:50:49Z</time>
      </trkpt>
      <trkpt lat="48.04994" lon="6.84083">
        <ele>827</ele>
        <time>2021-08-19T13:51:07Z</time>
      </trkpt>
      <trkpt lat="48.05111" lon="6.8408">
        <ele>845</ele>
        <time>2021-08-19T13:51:34Z</time>
      </trkpt>
      <trkpt lat="48.05146" lon="6.84094">
        <ele>842</ele>
        <time>2021-08-19T13:51:42Z</time>
      </trkpt>
      <trkpt lat="48.05181" lon="6.84091">
        <ele>842</ele>
        <time>2021-08-19T13:51:51Z</time>
      </trkpt>
      <trkpt lat="48.05197" lon="6.84095">
        <ele>840</ele>
        <time>2021-08-19T13:51:54Z</time>
      </trkpt>
      <trkpt lat="48.0526" lon="6.84088">
        <ele>838</ele>
        <time>2021-08-19T13:52:09Z</time>
      </trkpt>
      <trkpt lat="48.05303" lon="6.84074">
        <ele>839</ele>
        <time>2021-08-19T13:52:19Z</time>
      </trkpt>
      <trkpt lat="48.05352" lon="6.8409">
        <ele>835</ele>
        <time>2021-08-19T13:52:31Z</time>
      </trkpt>
      <trkpt lat="48.05395" lon="6.84155">
        <ele>834</ele>
        <time>2021-08-19T13:52:45Z</time>
      </trkpt>
      <trkpt lat="48.05412" lon="6.84214">
        <ele>831</ele>
        <time>2021-08-19T13:52:55Z</time>
      </trkpt>
      <trkpt lat="48.05483" lon="6.84325">
        <ele>837</ele>
        <time>2021-08-19T13:53:19Z</time>
      </trkpt>
      <trkpt lat="48.05517" lon="6.84358">
        <ele>837</ele>
        <time>2021-08-19T13:53:29Z</time>
      </trkpt>
      <trkpt lat="48.05595" lon="6.84336">
        <ele>852</ele>
        <time>2021-08-19T13:53:47Z</time>
      </trkpt>
      <trkpt lat="48.05696" lon="6.84291">
        <ele>857</ele>
        <time>2021-08-19T13:54:12Z</time>
      </trkpt>
      <trkpt lat="48.05824" lon="6.84258">
        <ele>868</ele>
        <time>2021-08-19T13:54:42Z</time>
      </trkpt>
      <trkpt lat="48.05859" lon="6.8426">
        <ele>873</ele>
        <time>2021-08-19T13:54:51Z</time>
      </trkpt>
      <trkpt lat="48.05965" lon="6.84618">
        <ele>823</ele>
        <time>2021-08-19T13:55:52Z</time>
      </trkpt>
      <trkpt lat="48.06013" lon="6.84574">
        <ele>849</ele>
        <time>2021-08-19T13:56:05Z</time>
      </trkpt>
      <trkpt lat="48.06022" lon="6.84546">
        <ele>855</ele>
        <time>2021-08-19T13:56:10Z</time>
      </trkpt>
      <trkpt lat="48.06043" lon="6.84533">
        <ele>861</ele>
        <time>2021-08-19T13:56:15Z</time>
      </trkpt>
      <trkpt lat="48.06152" lon="6.84528">
        <ele>872</ele>
        <time>2021-08-19T13:56:40Z</time>
      </trkpt>
      <trkpt lat="48.06204" lon="6.84504">
        <ele>878</ele>
        <time>2021-08-19T13:56:53Z</time>
      </trkpt>
      <trkpt lat="48.06261" lon="6.84529">
        <ele>874</ele>
        <time>2021-08-19T13:57:07Z</time>
      </trkpt>
      <trkpt lat="48.06252" lon="6.84414">
        <ele>890</ele>
        <time>2021-08-19T13:57:25Z</time>
      </trkpt>
      <trkpt lat="48.06305" lon="6.8441">
        <ele>888</ele>
        <time>2021-08-19T13:57:38Z</time>
      </trkpt>
      <trkpt lat="48.06334" lon="6.84421">
        <ele>887</ele>
        <time>2021-08-19T13:57:45Z</time>
      </trkpt>
      <trkpt lat="48.06378" lon="6.8439">
        <ele>881</ele>
        <time>2021-08-19T13:57:56Z</time>
      </trkpt>
      <trkpt lat="48.06341" lon="6.84417">
        <ele>886</ele>
        <time>2021-08-19T13:58:05Z</time>
      </trkpt>
      <trkpt lat="48.06262" lon="6.84413">
        <ele>889</ele>
        <time>2021-08-19T13:58:24Z</time>
      </trkpt>
      <trkpt lat="48.06231" lon="6.84398">
        <ele>888</ele>
        <time>2021-08-19T13:58:32Z</time>
      </trkpt>
      <trkpt lat="48.06188" lon="6.84384">
        <ele>886</ele>
        <time>2021-08-19T13:58:42Z</time>
      </trkpt>
      <trkpt lat="48.06107" lon="6.84384">
        <ele>888</ele>
        <time>2021-08-19T13:59:01Z</time>
      </trkpt>
      <trkpt lat="48.06156" lon="6.84269">
        <ele>882</ele>
        <time>2021-08-19T13:59:22Z</time>
      </trkpt>
      <trkpt lat="48.06144" lon="6.84221">
        <ele>882</ele>
        <time>2021-08-19T13:59:30Z</time>
      </trkpt>
      <trkpt lat="48.06123" lon="6.84017">
        <ele>869</ele>
        <time>2021-08-19T14:00:02Z</time>
      </trkpt>
      <trkpt lat="48.06092" lon="6.83979">
        <ele>868</ele>
        <time>2021-08-19T14:00:12Z</time>
      </trkpt>
      <trkpt lat="48.06061" lon="6.83967">
        <ele>869</ele>
        <time>2021-08-19T14:00:19Z</time>
      </trkpt>
      <trkpt lat="48.05981" lon="6.84001">
        <ele>878</ele>
        <time>2021-08-19T14:00:39Z</time>
      </trkpt>
      <trkpt lat="48.05914" lon="6.84051">
        <ele>881</ele>
        <time>2021-08-19T14:00:56Z</time>
      </trkpt>
      <trkpt lat="48.05843" lon="6.84162">
        <ele>878</ele>
        <time>2021-08-19T14:01:20Z</time>
      </trkpt>
      <trkpt lat="48.05857" lon="6.84098">
        <ele>878</ele>
        <time>2021-08-19T14:01:30Z</time>
      </trkpt>
      <trkpt lat="48.05855" lon="6.84036">
        <ele>873</ele>
        <time>2021-08-19T14:01:40Z</time>
      </trkpt>
      <trkpt lat="48.0586" lon="6.8399">
        <ele>870</ele>
        <time>2021-08-19T14:01:47Z</time>
      </trkpt>
      <trkpt lat="48.05851" lon="6.83956">
        <ele>867</ele>
        <time>2021-08-19T14:01:53Z</time>
      </trkpt>
      <trkpt lat="48.05841" lon="6.83843">
        <ele>863</ele>
        <time>2021-08-19T14:02:11Z</time>
      </trkpt>
      <trkpt lat="48.05861" lon="6.83754">
        <ele>865</ele>
        <time>2021-08-19T14:02:26Z</time>
      </trkpt>
      <trkpt lat="48.05893" lon="6.83662">
        <ele>875</ele>
        <time>2021-08-19T14:02:42Z</time>
      </trkpt>
      <trkpt lat="48.05938" lon="6.83585">
        <ele>886</ele>
        <time>2021-08-19T14:02:58Z</time>
      </trkpt>
      <trkpt lat="48.05923" lon="6.83546">
        <ele>894</ele>
        <time>2021-08-19T14:03:05Z</time>
      </trkpt>
      <trkpt lat="48.05894" lon="6.83516">
        <ele>896</ele>
        <time>2021-08-19T14:03:13Z</time>
      </trkpt>
      <trkpt lat="48.05886" lon="6.83485">
        <ele>898</ele>
        <time>2021-08-19T14:03:18Z</time>
      </trkpt>
      <trkpt lat="48.05874" lon="6.83408">
        <ele>905</ele>
        <time>2021-08-19T14:03:31Z</time>
      </trkpt>
      <trkpt lat="48.05849" lon="6.83329">
        <ele>911</ele>
        <time>2021-08-19T14:03:44Z</time>
      </trkpt>
      <trkpt lat="48.05797" lon="6.8325">
        <ele>916</ele>
        <time>2021-08-19T14:04:01Z</time>
      </trkpt>
      <trkpt lat="48.05742" lon="6.83185">
        <ele>922</ele>
        <time>2021-08-19T14:04:18Z</time>
      </trkpt>
      <trkpt lat="48.05724" lon="6.8318">
        <ele>921</ele>
        <time>2021-08-19T14:04:22Z</time>
      </trkpt>
      <trkpt lat="48.05685" lon="6.83309">
        <ele>906</ele>
        <time>2021-08-19T14:04:44Z</time>
      </trkpt>
      <trkpt lat="48.05661" lon="6.83334">
        <ele>903</ele>
        <time>2021-08-19T14:04:51Z</time>
      </trkpt>
      <trkpt lat="48.05563" lon="6.83374">
        <ele>901</ele>
        <time>2021-08-19T14:05:15Z</time>
      </trkpt>
      <trkpt lat="48.05497" lon="6.83418">
        <ele>902</ele>
        <time>2021-08-19T14:05:32Z</time>
      </trkpt>
      <trkpt lat="48.05472" lon="6.83423">
        <ele>908</ele>
        <time>2021-08-19T14:05:38Z</time>
      </trkpt>
      <trkpt lat="48.05468" lon="6.8345">
        <ele>910</ele>
        <time>2021-08-19T14:05:42Z</time>
      </trkpt>
      <trkpt lat="48.05471" lon="6.8356">
        <ele>912</ele>
        <time>2021-08-19T14:05:59Z</time>
      </trkpt>
      <trkpt lat="48.05461" lon="6.83606">
        <ele>913</ele>
        <time>2021-08-19T14:06:07Z</time>
      </trkpt>
      <trkpt lat="48.05443" lon="6.83639">
        <ele>915</ele>
        <time>2021-08-19T14:06:13Z</time>
      </trkpt>
      <trkpt lat="48.05409" lon="6.83656">
        <ele>919</ele>
        <time>2021-08-19T14:06:22Z</time>
      </trkpt>
      <trkpt lat="48.05388" lon="6.83659">
        <ele>922</ele>
        <time>2021-08-19T14:06:27Z</time>
      </trkpt>
      <trkpt lat="48.05319" lon="6.83724">
        <ele>924</ele>
        <time>2021-08-19T14:06:46Z</time>
      </trkpt>
      <trkpt lat="48.05273" lon="6.83721">
        <ele>927</ele>
        <time>2021-08-19T14:06:56Z</time>
      </trkpt>
      <trkpt lat="48.05234" lon="6.83709">
        <ele>927</ele>
        <time>2021-08-19T14:07:06Z</time>
      </trkpt>
      <trkpt lat="48.05212" lon="6.83696">
        <ele>926</ele>
        <time>2021-08-19T14:07:11Z</time>
      </trkpt>
      <trkpt lat="48.05157" lon="6.83652">
        <ele>923</ele>
        <time>2021-08-19T14:07:26Z</time>
      </trkpt>
      <trkpt lat="48.05148" lon="6.83639">
        <ele>924</ele>
        <time>2021-08-19T14:07:29Z</time>
      </trkpt>
      <trkpt lat="48.05119" lon="6.83619">
        <ele>923</ele>
        <time>2021-08-19T14:07:36Z</time>
      </trkpt>
      <trkpt lat="48.05095" lon="6.83617">
        <ele>920</ele>
        <time>2021-08-19T14:07:42Z</time>
      </trkpt>
      <trkpt lat="48.0506" lon="6.83622">
        <ele>916</ele>
        <time>2021-08-19T14:07:50Z</time>
      </trkpt>
      <trkpt lat="48.05021" lon="6.83638">
        <ele>908</ele>
        <time>2021-08-19T14:07:59Z</time>
      </trkpt>
      <trkpt lat="48.04983" lon="6.83633">
        <ele>906</ele>
        <time>2021-08-19T14:08:08Z</time>
      </trkpt>
      <trkpt lat="48.04928" lon="6.83612">
        <ele>910</ele>
        <time>2021-08-19T14:08:22Z</time>
      </trkpt>
      <trkpt lat="48.04883" lon="6.83608">
        <ele>907</ele>
        <time>2021-08-19T14:08:32Z</time>
      </trkpt>
      <trkpt lat="48.04827" lon="6.83578">
        <ele>907</ele>
        <time>2021-08-19T14:08:46Z</time>
      </trkpt>
      <trkpt lat="48.04747" lon="6.83595">
        <ele>891</ele>
        <time>2021-08-19T14:09:05Z</time>
      </trkpt>
      <trkpt lat="48.04668" lon="6.83625">
        <ele>879</ele>
        <time>2021-08-19T14:09:24Z</time>
      </trkpt>
      <trkpt lat="48.04641" lon="6.8365">
        <ele>872</ele>
        <time>2021-08-19T14:09:31Z</time>
      </trkpt>
      <trkpt lat="48.04596" lon="6.83663">
        <ele>866</ele>
        <time>2021-08-19T14:09:42Z</time>
      </trkpt>
      <trkpt lat="48.04537" lon="6.83659">
        <ele>858</ele>
        <time>2021-08-19T14:09:56Z</time>
      </trkpt>
      <trkpt lat="48.04482" lon="6.83633">
        <ele>853</ele>
        <time>2021-08-19T14:10:09Z</time>
      </trkpt>
      <trkpt lat="48.04439" lon="6.83593">
        <ele>850</ele>
        <time>2021-08-19T14:10:21Z</time>
      </trkpt>
      <trkpt lat="48.04469" lon="6.83708">
        <ele>842</ele>
        <time>2021-08-19T14:10:40Z</time>
      </trkpt>
      <trkpt lat="48.04413" lon="6.83794">
        <ele>834</ele>
        <time>2021-08-19T14:10:59Z</time>
      </trkpt>
      <trkpt lat="48.04337" lon="6.83812">
        <ele>830</ele>
        <time>2021-08-19T14:11:17Z</time>
      </trkpt>
      <trkpt lat="48.04323" lon="6.83821">
        <ele>831</ele>
        <time>2021-08-19T14:11:21Z</time>
      </trkpt>
      <trkpt lat="48.04311" lon="6.83898">
        <ele>837</ele>
        <time>2021-08-19T14:11:33Z</time>
      </trkpt>
      <trkpt lat="48.04312" lon="6.83915">
        <ele>837</ele>
        <time>2021-08-19T14:11:36Z</time>
      </trkpt>
      <trkpt lat="48.04368" lon="6.83972">
        <ele>839</ele>
        <time>2021-08-19T14:11:51Z</time>
      </trkpt>
      <trkpt lat="48.04403" lon="6.84033">
        <ele>842</ele>
        <time>2021-08-19T14:12:04Z</time>
      </trkpt>
      <trkpt lat="48.04402" lon="6.8407">
        <ele>844</ele>
        <time>2021-08-19T14:12:10Z</time>
      </trkpt>
      <trkpt lat="48.04351" lon="6.84097">
        <ele>850</ele>
        <time>2021-08-19T14:12:22Z</time>
      </trkpt>
      <trkpt lat="48.04345" lon="6.84119">
        <ele>852</ele>
        <time>2021-08-19T14:12:26Z</time>
      </trkpt>
      <trkpt lat="48.04362" lon="6.84161">
        <ele>851</ele>
        <time>2021-08-19T14:12:34Z</time>
      </trkpt>
      <trkpt lat="48.04367" lon="6.8422">
        <ele>852</ele>
        <time>2021-08-19T14:12:43Z</time>
      </trkpt>
      <trkpt lat="48.04383" lon="6.84262">
        <ele>847</ele>
        <time>2021-08-19T14:12:51Z</time>
      </trkpt>
      <trkpt lat="48.0438" lon="6.84317">
        <ele>846</ele>
        <time>2021-08-19T14:12:59Z</time>
      </trkpt>
      <trkpt lat="48.04358" lon="6.84396">
        <ele>849</ele>
        <time>2021-08-19T14:13:13Z</time>
      </trkpt>
      <trkpt lat="48.0433" lon="6.84424">
        <ele>857</ele>
        <time>2021-08-19T14:13:20Z</time>
      </trkpt>
      <trkpt lat="48.04331" lon="6.84446">
        <ele>857</ele>
        <time>2021-08-19T14:13:24Z</time>
      </trkpt>
      <trkpt lat="48.04361" lon="6.84478">
        <ele>852</ele>
        <time>2021-08-19T14:13:33Z</time>
      </trkpt>
      <trkpt lat="48.04423" lon="6.84506">
        <ele>843</ele>
        <time>2021-08-19T14:13:48Z</time>
      </trkpt>
      <trkpt lat="48.04444" lon="6.84565">
        <ele>847</ele>
        <time>2021-08-19T14:13:58Z</time>
      </trkpt>
      <trkpt lat="48.04487" lon="6.84656">
        <ele>845</ele>
        <time>2021-08-19T14:14:15Z</time>
      </trkpt>
      <trkpt lat="48.04532" lon="6.84666">
        <ele>833</ele>
        <time>2021-08-19T14:14:26Z</time>
      </trkpt>
      <trkpt lat="48.0459" lon="6.84754">
        <ele>831</ele>
        <time>2021-08-19T14:14:45Z</time>
      </trkpt>
      <trkpt lat="48.04631" lon="6.84809">
        <ele>828</ele>
        <time>2021-08-19T14:14:58Z</time>
      </trkpt>
      <trkpt lat="48.04712" lon="6.84876">
        <ele>818</ele>
        <time>2021-08-19T14:15:20Z</time>
      </trkpt>
      <trkpt lat="48.04721" lon="6.84907">
        <ele>821</ele>
        <time>2021-08-19T14:15:25Z</time>
      </trkpt>
      <trkpt lat="48.04715" lon="6.84981">
        <ele>823</ele>
        <time>2021-08-19T14:15:37Z</time>
      </trkpt>
      <trkpt lat="48.04717" lon="6.85023">
        <ele>821</ele>
        <time>2021-08-19T14:15:43Z</time>
      </trkpt>
      <trkpt lat="48.04711" lon="6.85065">
        <ele>821</ele>
        <time>2021-08-19T14:15:50Z</time>
      </trkpt>
      <trkpt lat="48.0473" lon="6.85116">
        <ele>812</ele>
        <time>2021-08-19T14:15:59Z</time>
      </trkpt>
      <trkpt lat="48.04734" lon="6.85153">
        <ele>809</ele>
        <time>2021-08-19T14:16:05Z</time>
      </trkpt>
      <trkpt lat="48.04716" lon="6.8519">
        <ele>809</ele>
        <time>2021-08-19T14:16:12Z</time>
      </trkpt>
      <trkpt lat="48.04685" lon="6.85221">
        <ele>812</ele>
        <time>2021-08-19T14:16:21Z</time>
      </trkpt>
      <trkpt lat="48.04654" lon="6.85233">
        <ele>819</ele>
        <time>2021-08-19T14:16:28Z</time>
      </trkpt>
      <trkpt lat="48.04635" lon="6.85261">
        <ele>825</ele>
        <time>2021-08-19T14:16:35Z</time>
      </trkpt>
      <trkpt lat="48.04618" lon="6.8538">
        <ele>830</ele>
        <time>2021-08-19T14:16:54Z</time>
      </trkpt>
      <trkpt lat="48.04623" lon="6.85403">
        <ele>829</ele>
        <time>2021-08-19T14:16:57Z</time>
      </trkpt>
      <trkpt lat="48.04657" lon="6.85434">
        <ele>817</ele>
        <time>2021-08-19T14:17:07Z</time>
      </trkpt>
      <trkpt lat="48.04676" lon="6.85471">
        <ele>816</ele>
        <time>2021-08-19T14:17:14Z</time>
      </trkpt>
      <trkpt lat="48.04688" lon="6.85498">
        <ele>816</ele>
        <time>2021-08-19T14:17:19Z</time>
      </trkpt>
      <trkpt lat="48.0469" lon="6.85561">
        <ele>824</ele>
        <time>2021-08-19T14:17:29Z</time>
      </trkpt>
      <trkpt lat="48.047" lon="6.85583">
        <ele>825</ele>
        <time>2021-08-19T14:17:33Z</time>
      </trkpt>
      <trkpt lat="48.04723" lon="6.85606">
        <ele>824</ele>
        <time>2021-08-19T14:17:39Z</time>
      </trkpt>
      <trkpt lat="48.04748" lon="6.85682">
        <ele>833</ele>
        <time>2021-08-19T14:17:53Z</time>
      </trkpt>
      <trkpt lat="48.04776" lon="6.85713">
        <ele>834</ele>
        <time>2021-08-19T14:18:01Z</time>
      </trkpt>
      <trkpt lat="48.04848" lon="6.85746">
        <ele>829</ele>
        <time>2021-08-19T14:18:18Z</time>
      </trkpt>
      <trkpt lat="48.04867" lon="6.85773">
        <ele>830</ele>
        <time>2021-08-19T14:18:25Z</time>
      </trkpt>
      <trkpt lat="48.04877" lon="6.85825">
        <ele>833</ele>
        <time>2021-08-19T14:18:33Z</time>
      </trkpt>
      <trkpt lat="48.04894" lon="6.85843">
        <ele>832</ele>
        <time>2021-08-19T14:18:38Z</time>
      </trkpt>
      <trkpt lat="48.04908" lon="6.85925">
        <ele>830</ele>
        <time>2021-08-19T14:18:51Z</time>
      </trkpt>
      <trkpt lat="48.04938" lon="6.85951">
        <ele>821</ele>
        <time>2021-08-19T14:18:59Z</time>
      </trkpt>
      <trkpt lat="48.04938" lon="6.85987">
        <ele>819</ele>
        <time>2021-08-19T14:19:05Z</time>
      </trkpt>
      <trkpt lat="48.04926" lon="6.86023">
        <ele>821</ele>
        <time>2021-08-19T14:19:11Z</time>
      </trkpt>
      <trkpt lat="48.04918" lon="6.86067">
        <ele>821</ele>
        <time>2021-08-19T14:19:18Z</time>
      </trkpt>
      <trkpt lat="48.04927" lon="6.86108">
        <ele>816</ele>
        <time>2021-08-19T14:19:25Z</time>
      </trkpt>
      <trkpt lat="48.04914" lon="6.8619">
        <ele>813</ele>
        <time>2021-08-19T14:19:38Z</time>
      </trkpt>
      <trkpt lat="48.04898" lon="6.8623">
        <ele>816</ele>
        <time>2021-08-19T14:19:45Z</time>
      </trkpt>
      <trkpt lat="48.04903" lon="6.86268">
        <ele>812</ele>
        <time>2021-08-19T14:19:51Z</time>
      </trkpt>
      <trkpt lat="48.04909" lon="6.86284">
        <ele>809</ele>
        <time>2021-08-19T14:19:54Z</time>
      </trkpt>
      <trkpt lat="48.04907" lon="6.86333">
        <ele>809</ele>
        <time>2021-08-19T14:20:02Z</time>
      </trkpt>
      <trkpt lat="48.0494" lon="6.86355">
        <ele>804</ele>
        <time>2021-08-19T14:20:10Z</time>
      </trkpt>
      <trkpt lat="48.04945" lon="6.86382">
        <ele>806</ele>
        <time>2021-08-19T14:20:15Z</time>
      </trkpt>
      <trkpt lat="48.04967" lon="6.86416">
        <ele>805</ele>
        <time>2021-08-19T14:20:22Z</time>
      </trkpt>
      <trkpt lat="48.04988" lon="6.86442">
        <ele>803</ele>
        <time>2021-08-19T14:20:28Z</time>
      </trkpt>
      <trkpt lat="48.05019" lon="6.86442">
        <ele>798</ele>
        <time>2021-08-19T14:20:36Z</time>
      </trkpt>
      <trkpt lat="48.05047" lon="6.86462">
        <ele>798</ele>
        <time>2021-08-19T14:20:43Z</time>
      </trkpt>
      <trkpt lat="48.05083" lon="6.86468">
        <ele>795</ele>
        <time>2021-08-19T14:20:51Z</time>
      </trkpt>
      <trkpt lat="48.05111" lon="6.86524">
        <ele>801</ele>
        <time>2021-08-19T14:21:02Z</time>
      </trkpt>
      <trkpt lat="48.05095" lon="6.86543">
        <ele>800</ele>
        <time>2021-08-19T14:21:07Z</time>
      </trkpt>
      <trkpt lat="48.05075" lon="6.86547">
        <ele>799</ele>
        <time>2021-08-19T14:21:12Z</time>
      </trkpt>
      <trkpt lat="48.05045" lon="6.86539">
        <ele>802</ele>
        <time>2021-08-19T14:21:19Z</time>
      </trkpt>
      <trkpt lat="48.04992" lon="6.8655">
        <ele>806</ele>
        <time>2021-08-19T14:21:31Z</time>
      </trkpt>
      <trkpt lat="48.04933" lon="6.86553">
        <ele>812</ele>
        <time>2021-08-19T14:21:45Z</time>
      </trkpt>
      <trkpt lat="48.04782" lon="6.86518">
        <ele>813</ele>
        <time>2021-08-19T14:22:21Z</time>
      </trkpt>
      <trkpt lat="48.04683" lon="6.86476">
        <ele>814</ele>
        <time>2021-08-19T14:22:45Z</time>
      </trkpt>
      <trkpt lat="48.04627" lon="6.86467">
        <ele>805</ele>
        <time>2021-08-19T14:22:58Z</time>
      </trkpt>
      <trkpt lat="48.04582" lon="6.86433">
        <ele>804</ele>
        <time>2021-08-19T14:23:10Z</time>
      </trkpt>
      <trkpt lat="48.04517" lon="6.86321">
        <ele>799</ele>
        <time>2021-08-19T14:23:33Z</time>
      </trkpt>
      <trkpt lat="48.04492" lon="6.86186">
        <ele>807</ele>
        <time>2021-08-19T14:23:55Z</time>
      </trkpt>
      <trkpt lat="48.04474" lon="6.86134">
        <ele>810</ele>
        <time>2021-08-19T14:24:04Z</time>
      </trkpt>
      <trkpt lat="48.04416" lon="6.86079">
        <ele>805</ele>
        <time>2021-08-19T14:24:20Z</time>
      </trkpt>
      <trkpt lat="48.04393" lon="6.86072">
        <ele>799</ele>
        <time>2021-08-19T14:24:26Z</time>
      </trkpt>
      <trkpt lat="48.04322" lon="6.86008">
        <ele>790</ele>
        <time>2021-08-19T14:24:45Z</time>
      </trkpt>
      <trkpt lat="48.0426" lon="6.85934">
        <ele>777</ele>
        <time>2021-08-19T14:25:03Z</time>
      </trkpt>
      <trkpt lat="48.04211" lon="6.85851">
        <ele>777</ele>
        <time>2021-08-19T14:25:21Z</time>
      </trkpt>
      <trkpt lat="48.04241" lon="6.85919">
        <ele>772</ele>
        <time>2021-08-19T14:25:33Z</time>
      </trkpt>
      <trkpt lat="48.04244" lon="6.86">
        <ele>756</ele>
        <time>2021-08-19T14:25:46Z</time>
      </trkpt>
      <trkpt lat="48.0427" lon="6.86061">
        <ele>759</ele>
        <time>2021-08-19T14:25:57Z</time>
      </trkpt>
      <trkpt lat="48.04359" lon="6.8623">
        <ele>763</ele>
        <time>2021-08-19T14:26:31Z</time>
      </trkpt>
      <trkpt lat="48.04388" lon="6.86279">
        <ele>763</ele>
        <time>2021-08-19T14:26:41Z</time>
      </trkpt>
      <trkpt lat="48.04409" lon="6.86341">
        <ele>762</ele>
        <time>2021-08-19T14:26:52Z</time>
      </trkpt>
      <trkpt lat="48.04416" lon="6.86369">
        <ele>762</ele>
        <time>2021-08-19T14:26:57Z</time>
      </trkpt>
      <trkpt lat="48.04411" lon="6.86383">
        <ele>760</ele>
        <time>2021-08-19T14:26:59Z</time>
      </trkpt>
      <trkpt lat="48.04414" lon="6.86415">
        <ele>760</ele>
        <time>2021-08-19T14:27:04Z</time>
      </trkpt>
      <trkpt lat="48.04429" lon="6.86459">
        <ele>760</ele>
        <time>2021-08-19T14:27:12Z</time>
      </trkpt>
      <trkpt lat="48.04464" lon="6.8652">
        <ele>760</ele>
        <time>2021-08-19T14:27:25Z</time>
      </trkpt>
      <trkpt lat="48.04474" lon="6.86549">
        <ele>758</ele>
        <time>2021-08-19T14:27:30Z</time>
      </trkpt>
      <trkpt lat="48.04466" lon="6.8656">
        <ele>757</ele>
        <time>2021-08-19T14:27:32Z</time>
      </trkpt>
      <trkpt lat="48.0447" lon="6.86641">
        <ele>755</ele>
        <time>2021-08-19T14:27:45Z</time>
      </trkpt>
      <trkpt lat="48.04436" lon="6.86812">
        <ele>757</ele>
        <time>2021-08-19T14:28:13Z</time>
      </trkpt>
      <trkpt lat="48.04425" lon="6.86834">
        <ele>758</ele>
        <time>2021-08-19T14:28:17Z</time>
      </trkpt>
      <trkpt lat="48.04408" lon="6.8684">
        <ele>759</ele>
        <time>2021-08-19T14:28:21Z</time>
      </trkpt>
      <trkpt lat="48.04388" lon="6.86831">
        <ele>761</ele>
        <time>2021-08-19T14:28:26Z</time>
      </trkpt>
      <trkpt lat="48.04315" lon="6.86769">
        <ele>763</ele>
        <time>2021-08-19T14:28:46Z</time>
      </trkpt>
      <trkpt lat="48.04275" lon="6.86772">
        <ele>769</ele>
        <time>2021-08-19T14:28:55Z</time>
      </trkpt>
      <trkpt lat="48.04251" lon="6.86767">
        <ele>772</ele>
        <time>2021-08-19T14:29:01Z</time>
      </trkpt>
      <trkpt lat="48.04235" lon="6.86751">
        <ele>774</ele>
        <time>2021-08-19T14:29:05Z</time>
      </trkpt>
      <trkpt lat="48.04218" lon="6.86721">
        <ele>774</ele>
        <time>2021-08-19T14:29:11Z</time>
      </trkpt>
      <trkpt lat="48.04197" lon="6.86653">
        <ele>769</ele>
        <time>2021-08-19T14:29:23Z</time>
      </trkpt>
      <trkpt lat="48.04178" lon="6.86624">
        <ele>769</ele>
        <time>2021-08-19T14:29:29Z</time>
      </trkpt>
      <trkpt lat="48.04158" lon="6.86613">
        <ele>772</ele>
        <time>2021-08-19T14:29:34Z</time>
      </trkpt>
      <trkpt lat="48.04146" lon="6.86568">
        <ele>770</ele>
        <time>2021-08-19T14:29:42Z</time>
      </trkpt>
      <trkpt lat="48.04145" lon="6.8653">
        <ele>767</ele>
        <time>2021-08-19T14:29:48Z</time>
      </trkpt>
      <trkpt lat="48.04131" lon="6.86466">
        <ele>765</ele>
        <time>2021-08-19T14:29:58Z</time>
      </trkpt>
      <trkpt lat="48.04078" lon="6.86392">
        <ele>766</ele>
        <time>2021-08-19T14:30:15Z</time>
      </trkpt>
      <trkpt lat="48.04023" lon="6.8634">
        <ele>767</ele>
        <time>2021-08-19T14:30:30Z</time>
      </trkpt>
      <trkpt lat="48.03921" lon="6.86267">
        <ele>773</ele>
        <time>2021-08-19T14:30:57Z</time>
      </trkpt>
      <trkpt lat="48.03878" lon="6.86225">
        <ele>776</ele>
        <time>2021-08-19T14:31:09Z</time>
      </trkpt>
      <trkpt lat="48.03831" lon="6.86206">
        <ele>785</ele>
        <time>2021-08-19T14:31:20Z</time>
      </trkpt>
      <trkpt lat="48.03819" lon="6.86195">
        <ele>785</ele>
        <time>2021-08-19T14:31:23Z</time>
      </trkpt>
      <trkpt lat="48.03808" lon="6.86168">
        <ele>780</ele>
        <time>2021-08-19T14:31:28Z</time>
      </trkpt>
      <trkpt lat="48.03777" lon="6.86123">
        <ele>780</ele>
        <time>2021-08-19T14:31:38Z</time>
      </trkpt>
      <trkpt lat="48.03686" lon="6.86085">
        <ele>790</ele>
        <time>2021-08-19T14:32:00Z</time>
      </trkpt>
      <trkpt lat="48.03632" lon="6.86043">
        <ele>788</ele>
        <time>2021-08-19T14:32:15Z</time>
      </trkpt>
      <trkpt lat="48.0356" lon="6.86026">
        <ele>787</ele>
        <time>2021-08-19T14:32:32Z</time>
      </trkpt>
      <trkpt lat="48.03505" lon="6.86038">
        <ele>787</ele>
        <time>2021-08-19T14:32:45Z</time>
      </trkpt>
      <trkpt lat="48.03461" lon="6.86076">
        <ele>794</ele>
        <time>2021-08-19T14:32:57Z</time>
      </trkpt>
      <trkpt lat="48.03441" lon="6.86111">
        <ele>800</ele>
        <time>2021-08-19T14:33:04Z</time>
      </trkpt>
      <trkpt lat="48.03411" lon="6.86146">
        <ele>805</ele>
        <time>2021-08-19T14:33:13Z</time>
      </trkpt>
      <trkpt lat="48.03282" lon="6.86212">
        <ele>802</ele>
        <time>2021-08-19T14:33:44Z</time>
      </trkpt>
      <trkpt lat="48.03247" lon="6.8624">
        <ele>800</ele>
        <time>2021-08-19T14:33:54Z</time>
      </trkpt>
      <trkpt lat="48.03184" lon="6.8627">
        <ele>802</ele>
        <time>2021-08-19T14:34:09Z</time>
      </trkpt>
      <trkpt lat="48.03167" lon="6.86291">
        <ele>803</ele>
        <time>2021-08-19T14:34:14Z</time>
      </trkpt>
      <trkpt lat="48.03139" lon="6.86384">
        <ele>810</ele>
        <time>2021-08-19T14:34:30Z</time>
      </trkpt>
      <trkpt lat="48.03038" lon="6.86655">
        <ele>837</ele>
        <time>2021-08-19T14:35:19Z</time>
      </trkpt>
      <trkpt lat="48.03014" lon="6.86703">
        <ele>838</ele>
        <time>2021-08-19T14:35:28Z</time>
      </trkpt>
      <trkpt lat="48.02966" lon="6.86874">
        <ele>844</ele>
        <time>2021-08-19T14:35:57Z</time>
      </trkpt>
      <trkpt lat="48.0296" lon="6.86912">
        <ele>847</ele>
        <time>2021-08-19T14:36:03Z</time>
      </trkpt>
      <trkpt lat="48.03094" lon="6.86753">
        <ele>869</ele>
        <time>2021-08-19T14:36:43Z</time>
      </trkpt>
      <trkpt lat="48.03181" lon="6.86693">
        <ele>887</ele>
        <time>2021-08-19T14:37:05Z</time>
      </trkpt>
      <trkpt lat="48.03215" lon="6.86633">
        <ele>882</ele>
        <time>2021-08-19T14:37:18Z</time>
      </trkpt>
      <trkpt lat="48.03324" lon="6.86508">
        <ele>878</ele>
        <time>2021-08-19T14:37:50Z</time>
      </trkpt>
      <trkpt lat="48.03332" lon="6.86516">
        <ele>882</ele>
        <time>2021-08-19T14:37:52Z</time>
      </trkpt>
      <trkpt lat="48.03378" lon="6.86451">
        <ele>878</ele>
        <time>2021-08-19T14:38:07Z</time>
      </trkpt>
      <trkpt lat="48.03445" lon="6.86426">
        <ele>887</ele>
        <time>2021-08-19T14:38:23Z</time>
      </trkpt>
      <trkpt lat="48.03519" lon="6.86393">
        <ele>890</ele>
        <time>2021-08-19T14:38:41Z</time>
      </trkpt>
      <trkpt lat="48.03627" lon="6.86394">
        <ele>901</ele>
        <time>2021-08-19T14:39:06Z</time>
      </trkpt>
      <trkpt lat="48.03664" lon="6.86419">
        <ele>912</ele>
        <time>2021-08-19T14:39:16Z</time>
      </trkpt>
      <trkpt lat="48.03753" lon="6.86516">
        <ele>917</ele>
        <time>2021-08-19T14:39:41Z</time>
      </trkpt>
      <trkpt lat="48.03758" lon="6.86556">
        <ele>924</ele>
        <time>2021-08-19T14:39:48Z</time>
      </trkpt>
      <trkpt lat="48.03769" lon="6.86584">
        <ele>926</ele>
        <time>2021-08-19T14:39:53Z</time>
      </trkpt>
      <trkpt lat="48.03789" lon="6.86609">
        <ele>922</ele>
        <time>2021-08-19T14:39:59Z</time>
      </trkpt>
      <trkpt lat="48.03803" lon="6.8666">
        <ele>924</ele>
        <time>2021-08-19T14:40:08Z</time>
      </trkpt>
      <trkpt lat="48.03791" lon="6.86676">
        <ele>929</ele>
        <time>2021-08-19T14:40:11Z</time>
      </trkpt>
      <trkpt lat="48.0379" lon="6.86706">
        <ele>930</ele>
        <time>2021-08-19T14:40:16Z</time>
      </trkpt>
      <trkpt lat="48.03797" lon="6.86749">
        <ele>930</ele>
        <time>2021-08-19T14:40:23Z</time>
      </trkpt>
      <trkpt lat="48.0379" lon="6.8677">
        <ele>930</ele>
        <time>2021-08-19T14:40:27Z</time>
      </trkpt>
      <trkpt lat="48.03748" lon="6.86808">
        <ele>937</ele>
        <time>2021-08-19T14:40:38Z</time>
      </trkpt>
      <trkpt lat="48.03734" lon="6.86831">
        <ele>941</ele>
        <time>2021-08-19T14:40:43Z</time>
      </trkpt>
      <trkpt lat="48.03717" lon="6.86872">
        <ele>942</ele>
        <time>2021-08-19T14:40:50Z</time>
      </trkpt>
      <trkpt lat="48.03651" lon="6.86941">
        <ele>953</ele>
        <time>2021-08-19T14:41:09Z</time>
      </trkpt>
      <trkpt lat="48.0364" lon="6.86965">
        <ele>954</ele>
        <time>2021-08-19T14:41:14Z</time>
      </trkpt>
      <trkpt lat="48.03647" lon="6.87024">
        <ele>952</ele>
        <time>2021-08-19T14:41:23Z</time>
      </trkpt>
      <trkpt lat="48.03626" lon="6.8708">
        <ele>961</ele>
        <time>2021-08-19T14:41:33Z</time>
      </trkpt>
      <trkpt lat="48.03634" lon="6.87171">
        <ele>961</ele>
        <time>2021-08-19T14:41:47Z</time>
      </trkpt>
      <trkpt lat="48.03668" lon="6.87273">
        <ele>965</ele>
        <time>2021-08-19T14:42:05Z</time>
      </trkpt>
      <trkpt lat="48.03633" lon="6.87418">
        <ele>981</ele>
        <time>2021-08-19T14:42:29Z</time>
      </trkpt>
      <trkpt lat="48.03556" lon="6.87412">
        <ele>989</ele>
        <time>2021-08-19T14:42:47Z</time>
      </trkpt>
      <trkpt lat="48.0351" lon="6.87418">
        <ele>994</ele>
        <time>2021-08-19T14:42:58Z</time>
      </trkpt>
      <trkpt lat="48.03528" lon="6.8737">
        <ele>992</ele>
        <time>2021-08-19T14:43:07Z</time>
      </trkpt>
      <trkpt lat="48.0353" lon="6.87329">
        <ele>992</ele>
        <time>2021-08-19T14:43:13Z</time>
      </trkpt>
      <trkpt lat="48.03555" lon="6.87258">
        <ele>986</ele>
        <time>2021-08-19T14:43:26Z</time>
      </trkpt>
      <trkpt lat="48.03536" lon="6.87118">
        <ele>987</ele>
        <time>2021-08-19T14:43:48Z</time>
      </trkpt>
      <trkpt lat="48.03522" lon="6.87075">
        <ele>988</ele>
        <time>2021-08-19T14:43:55Z</time>
      </trkpt>
      <trkpt lat="48.03525" lon="6.8699">
        <ele>985</ele>
        <time>2021-08-19T14:44:09Z</time>
      </trkpt>
      <trkpt lat="48.03553" lon="6.86941">
        <ele>978</ele>
        <time>2021-08-19T14:44:19Z</time>
      </trkpt>
      <trkpt lat="48.03554" lon="6.86884">
        <ele>981</ele>
        <time>2021-08-19T14:44:28Z</time>
      </trkpt>
      <trkpt lat="48.03594" lon="6.86856">
        <ele>976</ele>
        <time>2021-08-19T14:44:38Z</time>
      </trkpt>
      <trkpt lat="48.03603" lon="6.86783">
        <ele>976</ele>
        <time>2021-08-19T14:44:50Z</time>
      </trkpt>
      <trkpt lat="48.03635" lon="6.86755">
        <ele>970</ele>
        <time>2021-08-19T14:44:58Z</time>
      </trkpt>
      <trkpt lat="48.03608" lon="6.86702">
        <ele>969</ele>
        <time>2021-08-19T14:45:09Z</time>
      </trkpt>
      <trkpt lat="48.03619" lon="6.86648">
        <ele>962</ele>
        <time>2021-08-19T14:45:17Z</time>
      </trkpt>
      <trkpt lat="48.03603" lon="6.86606">
        <ele>956</ele>
        <time>2021-08-19T14:45:25Z</time>
      </trkpt>
      <trkpt lat="48.03538" lon="6.86603">
        <ele>952</ele>
        <time>2021-08-19T14:45:40Z</time>
      </trkpt>
      <trkpt lat="48.03414" lon="6.8665">
        <ele>943</ele>
        <time>2021-08-19T14:46:10Z</time>
      </trkpt>
      <trkpt lat="48.03336" lon="6.86731">
        <ele>943</ele>
        <time>2021-08-19T14:46:32Z</time>
      </trkpt>
      <trkpt lat="48.03309" lon="6.86773">
        <ele>945</ele>
        <time>2021-08-19T14:46:41Z</time>
      </trkpt>
      <trkpt lat="48.03291" lon="6.86794">
        <ele>946</ele>
        <time>2021-08-19T14:46:47Z</time>
      </trkpt>
      <trkpt lat="48.03238" lon="6.86811">
        <ele>936</ele>
        <time>2021-08-19T14:46:59Z</time>
      </trkpt>
      <trkpt lat="48.03205" lon="6.86833">
        <ele>931</ele>
        <time>2021-08-19T14:47:08Z</time>
      </trkpt>
      <trkpt lat="48.03192" lon="6.86864">
        <ele>932</ele>
        <time>2021-08-19T14:47:14Z</time>
      </trkpt>
      <trkpt lat="48.03183" lon="6.86909">
        <ele>937</ele>
        <time>2021-08-19T14:47:21Z</time>
      </trkpt>
      <trkpt lat="48.03125" lon="6.87093">
        <ele>945</ele>
        <time>2021-08-19T14:47:53Z</time>
      </trkpt>
      <trkpt lat="48.03086" lon="6.87124">
        <ele>934</ele>
        <time>2021-08-19T14:48:03Z</time>
      </trkpt>
      <trkpt lat="48.03051" lon="6.87189">
        <ele>935</ele>
        <time>2021-08-19T14:48:16Z</time>
      </trkpt>
      <trkpt lat="48.0303" lon="6.87217">
        <ele>932</ele>
        <time>2021-08-19T14:48:23Z</time>
      </trkpt>
      <trkpt lat="48.02959" lon="6.87504">
        <ele>936</ele>
        <time>2021-08-19T14:49:10Z</time>
      </trkpt>
      <trkpt lat="48.02936" lon="6.8751">
        <ele>927</ele>
        <time>2021-08-19T14:49:16Z</time>
      </trkpt>
      <trkpt lat="48.02768" lon="6.87953">
        <ele>940</ele>
        <time>2021-08-19T14:50:35Z</time>
      </trkpt>
      <trkpt lat="48.02754" lon="6.88037">
        <ele>946</ele>
        <time>2021-08-19T14:50:49Z</time>
      </trkpt>
      <trkpt lat="48.02692" lon="6.88344">
        <ele>957</ele>
        <time>2021-08-19T14:51:39Z</time>
      </trkpt>
      <trkpt lat="48.02623" lon="6.88656">
        <ele>955</ele>
        <time>2021-08-19T14:52:30Z</time>
      </trkpt>
      <trkpt lat="48.02626" lon="6.88736">
        <ele>947</ele>
        <time>2021-08-19T14:52:43Z</time>
      </trkpt>
      <trkpt lat="48.02651" lon="6.88833">
        <ele>942</ele>
        <time>2021-08-19T14:52:59Z</time>
      </trkpt>
      <trkpt lat="48.02686" lon="6.89026">
        <ele>934</ele>
        <time>2021-08-19T14:53:30Z</time>
      </trkpt>
      <trkpt lat="48.02697" lon="6.89026">
        <ele>938</ele>
        <time>2021-08-19T14:53:33Z</time>
      </trkpt>
      <trkpt lat="48.0272" lon="6.89143">
        <ele>936</ele>
        <time>2021-08-19T14:53:52Z</time>
      </trkpt>
      <trkpt lat="48.02753" lon="6.892">
        <ele>944</ele>
        <time>2021-08-19T14:54:04Z</time>
      </trkpt>
      <trkpt lat="48.0277" lon="6.89272">
        <ele>944</ele>
        <time>2021-08-19T14:54:16Z</time>
      </trkpt>
      <trkpt lat="48.02781" lon="6.89364">
        <ele>941</ele>
        <time>2021-08-19T14:54:30Z</time>
      </trkpt>
      <trkpt lat="48.02803" lon="6.89493">
        <ele>938</ele>
        <time>2021-08-19T14:54:51Z</time>
      </trkpt>
      <trkpt lat="48.02841" lon="6.89562">
        <ele>943</ele>
        <time>2021-08-19T14:55:05Z</time>
      </trkpt>
      <trkpt lat="48.02839" lon="6.8969">
        <ele>945</ele>
        <time>2021-08-19T14:55:25Z</time>
      </trkpt>
      <trkpt lat="48.02783" lon="6.89711">
        <ele>947</ele>
        <time>2021-08-19T14:55:38Z</time>
      </trkpt>
      <trkpt lat="48.02723" lon="6.89698">
        <ele>941</ele>
        <time>2021-08-19T14:55:53Z</time>
      </trkpt>
      <trkpt lat="48.02704" lon="6.89705">
        <ele>941</ele>
        <time>2021-08-19T14:55:57Z</time>
      </trkpt>
      <trkpt lat="48.02692" lon="6.89729">
        <ele>944</ele>
        <time>2021-08-19T14:56:02Z</time>
      </trkpt>
      <trkpt lat="48.02685" lon="6.89778">
        <ele>949</ele>
        <time>2021-08-19T14:56:10Z</time>
      </trkpt>
      <trkpt lat="48.02702" lon="6.9">
        <ele>955</ele>
        <time>2021-08-19T14:56:45Z</time>
      </trkpt>
      <trkpt lat="48.02724" lon="6.90161">
        <ele>956</ele>
        <time>2021-08-19T14:57:10Z</time>
      </trkpt>
      <trkpt lat="48.02767" lon="6.9026">
        <ele>960</ele>
        <time>2021-08-19T14:57:29Z</time>
      </trkpt>
      <trkpt lat="48.02828" lon="6.90347">
        <ele>960</ele>
        <time>2021-08-19T14:57:48Z</time>
      </trkpt>
      <trkpt lat="48.02909" lon="6.90409">
        <ele>967</ele>
        <time>2021-08-19T14:58:10Z</time>
      </trkpt>
      <trkpt lat="48.02778" lon="6.90366">
        <ele>945</ele>
        <time>2021-08-19T14:58:41Z</time>
      </trkpt>
      <trkpt lat="48.02773" lon="6.90381">
        <ele>941</ele>
        <time>2021-08-19T14:58:43Z</time>
      </trkpt>
      <trkpt lat="48.02796" lon="6.90407">
        <ele>941</ele>
        <time>2021-08-19T14:58:50Z</time>
      </trkpt>
      <trkpt lat="48.0282" lon="6.90489">
        <ele>933</ele>
        <time>2021-08-19T14:59:04Z</time>
      </trkpt>
      <trkpt lat="48.02837" lon="6.90534">
        <ele>931</ele>
        <time>2021-08-19T14:59:12Z</time>
      </trkpt>
      <trkpt lat="48.02851" lon="6.90551">
        <ele>932</ele>
        <time>2021-08-19T14:59:16Z</time>
      </trkpt>
      <trkpt lat="48.02872" lon="6.90656">
        <ele>927</ele>
        <time>2021-08-19T14:59:34Z</time>
      </trkpt>
      <trkpt lat="48.02855" lon="6.90746">
        <ele>922</ele>
        <time>2021-08-19T14:59:48Z</time>
      </trkpt>
      <trkpt lat="48.02847" lon="6.90843">
        <ele>922</ele>
        <time>2021-08-19T15:00:03Z</time>
      </trkpt>
      <trkpt lat="48.02824" lon="6.90898">
        <ele>916</ele>
        <time>2021-08-19T15:00:14Z</time>
      </trkpt>
      <trkpt lat="48.02826" lon="6.91044">
        <ele>913</ele>
        <time>2021-08-19T15:00:36Z</time>
      </trkpt>
      <trkpt lat="48.02844" lon="6.91082">
        <ele>917</ele>
        <time>2021-08-19T15:00:44Z</time>
      </trkpt>
      <trkpt lat="48.02926" lon="6.91217">
        <ele>929</ele>
        <time>2021-08-19T15:01:12Z</time>
      </trkpt>
    </trkseg>
  </trk>
</gpx>